<?xml version="1.0" encoding="UTF-8" standalone="no" ?>
<gpx xmlns="http://www.topografix.com/GPX/1/1" xmlns:xsi="http://www.w3.org/2001/XMLSchema-instance" xsi:schemaLocation="http://www.topografix.com/GPX/1/1 http://www.topografix.com/GPX/1/1/gpx.xsd" version="1.1" creator="VisuGPX - https://www.visugpx.com">
  <metadata>
    <name>Falaises Vaches noires</name>
    <desc><![CDATA[falaises vaches]]></desc>
  </metadata>
  <trk>
    <name><![CDATA[track]]></name>
    <trkseg>
      <trkpt lat="49.32561" lon="-0.00049">
        <ele>2</ele>
        <time>2013-06-19T10:45:58Z</time>
      </trkpt>
      <trkpt lat="49.32554" lon="-0.00043">
        <ele>-2</ele>
        <time>2013-06-19T10:46:48Z</time>
      </trkpt>
      <trkpt lat="49.32563" lon="-0.00042">
        <ele>-2</ele>
        <time>2013-06-19T10:46:58Z</time>
      </trkpt>
      <trkpt lat="49.32564" lon="-0.0004">
        <ele>-1</ele>
        <time>2013-06-19T10:48:17Z</time>
      </trkpt>
      <trkpt lat="49.32566" lon="-0.00042">
        <ele>-1</ele>
        <time>2013-06-19T10:48:43Z</time>
      </trkpt>
      <trkpt lat="49.32566" lon="-0.00043">
        <ele>-2</ele>
        <time>2013-06-19T10:49:34Z</time>
      </trkpt>
      <trkpt lat="49.32566" lon="-0.00043">
        <ele>-2</ele>
        <time>2013-06-19T10:51:41Z</time>
      </trkpt>
      <trkpt lat="49.32566" lon="-0.00043">
        <ele>-2</ele>
        <time>2013-06-19T10:52:02Z</time>
      </trkpt>
      <trkpt lat="49.32566" lon="-0.00043">
        <ele>-2</ele>
        <time>2013-06-19T10:53:07Z</time>
      </trkpt>
      <trkpt lat="49.32565" lon="-0.00043">
        <ele>-2</ele>
        <time>2013-06-19T10:53:41Z</time>
      </trkpt>
      <trkpt lat="49.32566" lon="-0.00044">
        <ele>-2</ele>
        <time>2013-06-19T10:54:01Z</time>
      </trkpt>
      <trkpt lat="49.32566" lon="-0.00043">
        <ele>-2</ele>
        <time>2013-06-19T10:54:33Z</time>
      </trkpt>
      <trkpt lat="49.32566" lon="-0.00044">
        <ele>-2</ele>
        <time>2013-06-19T10:59:05Z</time>
      </trkpt>
      <trkpt lat="49.32566" lon="-0.00044">
        <ele>-2</ele>
        <time>2013-06-19T10:59:56Z</time>
      </trkpt>
      <trkpt lat="49.32566" lon="-0.00044">
        <ele>-2</ele>
        <time>2013-06-19T11:01:43Z</time>
      </trkpt>
      <trkpt lat="49.32566" lon="-0.00046">
        <ele>5.4</ele>
        <time>2013-06-19T11:02:09Z</time>
      </trkpt>
      <trkpt lat="49.32565" lon="-0.00045">
        <ele>-1</ele>
        <time>2013-06-19T11:03:09Z</time>
      </trkpt>
      <trkpt lat="49.32565" lon="-0.00045">
        <ele>5.5</ele>
        <time>2013-06-19T11:03:24Z</time>
      </trkpt>
      <trkpt lat="49.32564" lon="-0.00044">
        <ele>1</ele>
        <time>2013-06-19T11:03:36Z</time>
      </trkpt>
      <trkpt lat="49.32565" lon="-0.00041">
        <ele>2</ele>
        <time>2013-06-19T11:03:56Z</time>
      </trkpt>
      <trkpt lat="49.32565" lon="-0.0004">
        <ele>2</ele>
        <time>2013-06-19T11:04:25Z</time>
      </trkpt>
      <trkpt lat="49.32566" lon="-0.00038">
        <ele>1</ele>
        <time>2013-06-19T11:04:38Z</time>
      </trkpt>
      <trkpt lat="49.32567" lon="-0.00038">
        <ele>1</ele>
        <time>2013-06-19T11:05:13Z</time>
      </trkpt>
      <trkpt lat="49.32566" lon="-0.00039">
        <ele>2</ele>
        <time>2013-06-19T11:05:56Z</time>
      </trkpt>
      <trkpt lat="49.32561" lon="-0.00037">
        <ele>2</ele>
        <time>2013-06-19T11:06:09Z</time>
      </trkpt>
      <trkpt lat="49.32558" lon="-0.0004">
        <ele>2</ele>
        <time>2013-06-19T11:06:14Z</time>
      </trkpt>
      <trkpt lat="49.32551" lon="-0.00042">
        <ele>2</ele>
        <time>2013-06-19T11:06:19Z</time>
      </trkpt>
      <trkpt lat="49.32548" lon="-0.00045">
        <ele>2</ele>
        <time>2013-06-19T11:06:22Z</time>
      </trkpt>
      <trkpt lat="49.32542" lon="-0.0005">
        <ele>2</ele>
        <time>2013-06-19T11:06:30Z</time>
      </trkpt>
      <trkpt lat="49.32525" lon="-0.00093">
        <ele>5.9</ele>
        <time>2013-06-19T11:06:55Z</time>
      </trkpt>
      <trkpt lat="49.3251" lon="-0.00116">
        <ele>-1</ele>
        <time>2013-06-19T11:07:14Z</time>
      </trkpt>
      <trkpt lat="49.32508" lon="-0.00118">
        <ele>-1</ele>
        <time>2013-06-19T11:07:26Z</time>
      </trkpt>
      <trkpt lat="49.32498" lon="-0.0011">
        <ele>-2</ele>
        <time>2013-06-19T11:07:38Z</time>
      </trkpt>
      <trkpt lat="49.32493" lon="-0.00107">
        <ele>-2</ele>
        <time>2013-06-19T11:07:42Z</time>
      </trkpt>
      <trkpt lat="49.32489" lon="-0.0011">
        <ele>-2</ele>
        <time>2013-06-19T11:07:46Z</time>
      </trkpt>
      <trkpt lat="49.32486" lon="-0.00112">
        <ele>-2</ele>
        <time>2013-06-19T11:07:48Z</time>
      </trkpt>
      <trkpt lat="49.32482" lon="-0.00116">
        <ele>-1</ele>
        <time>2013-06-19T11:07:52Z</time>
      </trkpt>
      <trkpt lat="49.32466" lon="-0.00114">
        <ele>5</ele>
        <time>2013-06-19T11:08:05Z</time>
      </trkpt>
      <trkpt lat="49.32454" lon="-0.00115">
        <ele>5</ele>
        <time>2013-06-19T11:08:14Z</time>
      </trkpt>
      <trkpt lat="49.32441" lon="-0.00123">
        <ele>1</ele>
        <time>2013-06-19T11:08:25Z</time>
      </trkpt>
      <trkpt lat="49.32438" lon="-0.00126">
        <ele>4.8</ele>
        <time>2013-06-19T11:08:28Z</time>
      </trkpt>
      <trkpt lat="49.32418" lon="-0.00133">
        <ele>4</ele>
        <time>2013-06-19T11:08:47Z</time>
      </trkpt>
      <trkpt lat="49.32416" lon="-0.00137">
        <ele>4</ele>
        <time>2013-06-19T11:10:07Z</time>
      </trkpt>
      <trkpt lat="49.32417" lon="-0.00138">
        <ele>1</ele>
        <time>2013-06-19T11:10:21Z</time>
      </trkpt>
      <trkpt lat="49.32417" lon="-0.00138">
        <ele>2</ele>
        <time>2013-06-19T11:10:35Z</time>
      </trkpt>
      <trkpt lat="49.32438" lon="-0.00124">
        <ele>3</ele>
        <time>2013-06-19T11:10:55Z</time>
      </trkpt>
      <trkpt lat="49.32454" lon="-0.00124">
        <ele>2</ele>
        <time>2013-06-19T11:11:12Z</time>
      </trkpt>
      <trkpt lat="49.32455" lon="-0.00122">
        <ele>2</ele>
        <time>2013-06-19T11:11:25Z</time>
      </trkpt>
      <trkpt lat="49.32462" lon="-0.00122">
        <ele>2</ele>
        <time>2013-06-19T11:11:33Z</time>
      </trkpt>
      <trkpt lat="49.32494" lon="-0.00131">
        <ele>4</ele>
        <time>2013-06-19T11:11:56Z</time>
      </trkpt>
      <trkpt lat="49.32502" lon="-0.00136">
        <ele>5</ele>
        <time>2013-06-19T11:12:03Z</time>
      </trkpt>
      <trkpt lat="49.32506" lon="-0.00138">
        <ele>5</ele>
        <time>2013-06-19T11:12:06Z</time>
      </trkpt>
      <trkpt lat="49.32511" lon="-0.00141">
        <ele>6</ele>
        <time>2013-06-19T11:12:10Z</time>
      </trkpt>
      <trkpt lat="49.32516" lon="-0.00147">
        <ele>7</ele>
        <time>2013-06-19T11:12:16Z</time>
      </trkpt>
      <trkpt lat="49.32517" lon="-0.00156">
        <ele>7</ele>
        <time>2013-06-19T11:12:21Z</time>
      </trkpt>
      <trkpt lat="49.32501" lon="-0.00204">
        <ele>7</ele>
        <time>2013-06-19T11:12:50Z</time>
      </trkpt>
      <trkpt lat="49.32483" lon="-0.00261">
        <ele>6</ele>
        <time>2013-06-19T11:13:20Z</time>
      </trkpt>
      <trkpt lat="49.32481" lon="-0.0027">
        <ele>6</ele>
        <time>2013-06-19T11:13:34Z</time>
      </trkpt>
      <trkpt lat="49.32464" lon="-0.00319">
        <ele>5</ele>
        <time>2013-06-19T11:14:01Z</time>
      </trkpt>
      <trkpt lat="49.32453" lon="-0.00352">
        <ele>4</ele>
        <time>2013-06-19T11:14:18Z</time>
      </trkpt>
      <trkpt lat="49.32434" lon="-0.00403">
        <ele>4</ele>
        <time>2013-06-19T11:14:45Z</time>
      </trkpt>
      <trkpt lat="49.32418" lon="-0.00449">
        <ele>4</ele>
        <time>2013-06-19T11:15:09Z</time>
      </trkpt>
      <trkpt lat="49.32398" lon="-0.00512">
        <ele>4</ele>
        <time>2013-06-19T11:15:41Z</time>
      </trkpt>
      <trkpt lat="49.32383" lon="-0.00565">
        <ele>1</ele>
        <time>2013-06-19T11:16:07Z</time>
      </trkpt>
      <trkpt lat="49.32366" lon="-0.0062">
        <ele>1</ele>
        <time>2013-06-19T11:16:34Z</time>
      </trkpt>
      <trkpt lat="49.32354" lon="-0.00656">
        <ele>2</ele>
        <time>2013-06-19T11:16:58Z</time>
      </trkpt>
      <trkpt lat="49.32353" lon="-0.00655">
        <ele>2</ele>
        <time>2013-06-19T11:17:19Z</time>
      </trkpt>
      <trkpt lat="49.32349" lon="-0.00666">
        <ele>3</ele>
        <time>2013-06-19T11:17:35Z</time>
      </trkpt>
      <trkpt lat="49.32347" lon="-0.00671">
        <ele>4</ele>
        <time>2013-06-19T11:17:49Z</time>
      </trkpt>
      <trkpt lat="49.32338" lon="-0.00685">
        <ele>3</ele>
        <time>2013-06-19T11:18:07Z</time>
      </trkpt>
      <trkpt lat="49.32332" lon="-0.007">
        <ele>2</ele>
        <time>2013-06-19T11:18:24Z</time>
      </trkpt>
      <trkpt lat="49.32329" lon="-0.00706">
        <ele>2</ele>
        <time>2013-06-19T11:18:35Z</time>
      </trkpt>
      <trkpt lat="49.3232" lon="-0.00733">
        <ele>2</ele>
        <time>2013-06-19T11:18:54Z</time>
      </trkpt>
      <trkpt lat="49.32312" lon="-0.00764">
        <ele>2</ele>
        <time>2013-06-19T11:19:14Z</time>
      </trkpt>
      <trkpt lat="49.32298" lon="-0.00802">
        <ele>2</ele>
        <time>2013-06-19T11:19:40Z</time>
      </trkpt>
      <trkpt lat="49.32281" lon="-0.00861">
        <ele>3</ele>
        <time>2013-06-19T11:20:11Z</time>
      </trkpt>
      <trkpt lat="49.32268" lon="-0.00912">
        <ele>2</ele>
        <time>2013-06-19T11:20:34Z</time>
      </trkpt>
      <trkpt lat="49.32246" lon="-0.00973">
        <ele>7</ele>
        <time>2013-06-19T11:21:05Z</time>
      </trkpt>
      <trkpt lat="49.32236" lon="-0.01004">
        <ele>11</ele>
        <time>2013-06-19T11:21:20Z</time>
      </trkpt>
      <trkpt lat="49.3222" lon="-0.01054">
        <ele>12</ele>
        <time>2013-06-19T11:21:43Z</time>
      </trkpt>
      <trkpt lat="49.32208" lon="-0.01102">
        <ele>11</ele>
        <time>2013-06-19T11:22:03Z</time>
      </trkpt>
      <trkpt lat="49.32198" lon="-0.01141">
        <ele>11</ele>
        <time>2013-06-19T11:22:21Z</time>
      </trkpt>
      <trkpt lat="49.32186" lon="-0.01171">
        <ele>13</ele>
        <time>2013-06-19T11:22:36Z</time>
      </trkpt>
      <trkpt lat="49.32182" lon="-0.01197">
        <ele>17</ele>
        <time>2013-06-19T11:22:51Z</time>
      </trkpt>
      <trkpt lat="49.32178" lon="-0.01241">
        <ele>16</ele>
        <time>2013-06-19T11:23:11Z</time>
      </trkpt>
      <trkpt lat="49.32171" lon="-0.01272">
        <ele>22</ele>
        <time>2013-06-19T11:23:26Z</time>
      </trkpt>
      <trkpt lat="49.3217" lon="-0.01273">
        <ele>23</ele>
        <time>2013-06-19T11:23:27Z</time>
      </trkpt>
      <trkpt lat="49.3217" lon="-0.01277">
        <ele>23</ele>
        <time>2013-06-19T11:23:29Z</time>
      </trkpt>
      <trkpt lat="49.32161" lon="-0.01312">
        <ele>26</ele>
        <time>2013-06-19T11:23:44Z</time>
      </trkpt>
      <trkpt lat="49.32161" lon="-0.01314">
        <ele>26</ele>
        <time>2013-06-19T11:23:45Z</time>
      </trkpt>
      <trkpt lat="49.32156" lon="-0.01325">
        <ele>28</ele>
        <time>2013-06-19T11:23:51Z</time>
      </trkpt>
      <trkpt lat="49.32156" lon="-0.01332">
        <ele>25</ele>
        <time>2013-06-19T11:23:54Z</time>
      </trkpt>
      <trkpt lat="49.32146" lon="-0.01366">
        <ele>21</ele>
        <time>2013-06-19T11:24:10Z</time>
      </trkpt>
      <trkpt lat="49.32129" lon="-0.0141">
        <ele>25</ele>
        <time>2013-06-19T11:24:31Z</time>
      </trkpt>
      <trkpt lat="49.32121" lon="-0.01431">
        <ele>24</ele>
        <time>2013-06-19T11:24:43Z</time>
      </trkpt>
      <trkpt lat="49.32112" lon="-0.0146">
        <ele>26</ele>
        <time>2013-06-19T11:24:56Z</time>
      </trkpt>
      <trkpt lat="49.32102" lon="-0.01498">
        <ele>25</ele>
        <time>2013-06-19T11:25:15Z</time>
      </trkpt>
      <trkpt lat="49.32094" lon="-0.01518">
        <ele>28</ele>
        <time>2013-06-19T11:25:26Z</time>
      </trkpt>
      <trkpt lat="49.32084" lon="-0.0155">
        <ele>26</ele>
        <time>2013-06-19T11:25:41Z</time>
      </trkpt>
      <trkpt lat="49.32071" lon="-0.01585">
        <ele>25</ele>
        <time>2013-06-19T11:25:57Z</time>
      </trkpt>
      <trkpt lat="49.32068" lon="-0.01624">
        <ele>17</ele>
        <time>2013-06-19T11:26:12Z</time>
      </trkpt>
      <trkpt lat="49.3206" lon="-0.0165">
        <ele>12</ele>
        <time>2013-06-19T11:26:26Z</time>
      </trkpt>
      <trkpt lat="49.32053" lon="-0.01673">
        <ele>9</ele>
        <time>2013-06-19T11:26:43Z</time>
      </trkpt>
      <trkpt lat="49.32052" lon="-0.01677">
        <ele>7</ele>
        <time>2013-06-19T11:26:58Z</time>
      </trkpt>
      <trkpt lat="49.32054" lon="-0.01677">
        <ele>6</ele>
        <time>2013-06-19T11:27:17Z</time>
      </trkpt>
      <trkpt lat="49.32057" lon="-0.01676">
        <ele>4</ele>
        <time>2013-06-19T11:27:33Z</time>
      </trkpt>
      <trkpt lat="49.32057" lon="-0.01676">
        <ele>4</ele>
        <time>2013-06-19T11:27:47Z</time>
      </trkpt>
      <trkpt lat="49.32057" lon="-0.01675">
        <ele>4</ele>
        <time>2013-06-19T11:28:10Z</time>
      </trkpt>
      <trkpt lat="49.32059" lon="-0.01683">
        <ele>3</ele>
        <time>2013-06-19T11:28:23Z</time>
      </trkpt>
      <trkpt lat="49.32059" lon="-0.01685">
        <ele>3</ele>
        <time>2013-06-19T11:28:25Z</time>
      </trkpt>
      <trkpt lat="49.32058" lon="-0.017">
        <ele>1</ele>
        <time>2013-06-19T11:28:38Z</time>
      </trkpt>
      <trkpt lat="49.32049" lon="-0.01736">
        <ele>2.4</ele>
        <time>2013-06-19T11:29:00Z</time>
      </trkpt>
      <trkpt lat="49.32038" lon="-0.01771">
        <ele>-1</ele>
        <time>2013-06-19T11:29:20Z</time>
      </trkpt>
      <trkpt lat="49.32028" lon="-0.01805">
        <ele>-1</ele>
        <time>2013-06-19T11:29:37Z</time>
      </trkpt>
      <trkpt lat="49.32019" lon="-0.01847">
        <ele>3</ele>
        <time>2013-06-19T11:29:58Z</time>
      </trkpt>
      <trkpt lat="49.32013" lon="-0.01889">
        <ele>6</ele>
        <time>2013-06-19T11:30:18Z</time>
      </trkpt>
      <trkpt lat="49.32006" lon="-0.01928">
        <ele>4</ele>
        <time>2013-06-19T11:30:35Z</time>
      </trkpt>
      <trkpt lat="49.32" lon="-0.01953">
        <ele>4</ele>
        <time>2013-06-19T11:30:47Z</time>
      </trkpt>
      <trkpt lat="49.31995" lon="-0.01979">
        <ele>6</ele>
        <time>2013-06-19T11:30:58Z</time>
      </trkpt>
      <trkpt lat="49.3199" lon="-0.02006">
        <ele>6</ele>
        <time>2013-06-19T11:31:11Z</time>
      </trkpt>
      <trkpt lat="49.31983" lon="-0.02044">
        <ele>7</ele>
        <time>2013-06-19T11:31:28Z</time>
      </trkpt>
      <trkpt lat="49.31976" lon="-0.0209">
        <ele>6</ele>
        <time>2013-06-19T11:31:50Z</time>
      </trkpt>
      <trkpt lat="49.31973" lon="-0.02123">
        <ele>4</ele>
        <time>2013-06-19T11:32:04Z</time>
      </trkpt>
      <trkpt lat="49.3197" lon="-0.02162">
        <ele>4</ele>
        <time>2013-06-19T11:32:22Z</time>
      </trkpt>
      <trkpt lat="49.31969" lon="-0.02187">
        <ele>4</ele>
        <time>2013-06-19T11:32:33Z</time>
      </trkpt>
      <trkpt lat="49.31973" lon="-0.02211">
        <ele>2</ele>
        <time>2013-06-19T11:32:45Z</time>
      </trkpt>
      <trkpt lat="49.31974" lon="-0.02217">
        <ele>2</ele>
        <time>2013-06-19T11:32:49Z</time>
      </trkpt>
      <trkpt lat="49.31975" lon="-0.02266">
        <time>2013-06-19T11:33:13Z</time>
      </trkpt>
      <trkpt lat="49.3197" lon="-0.023">
        <ele>-2</ele>
        <time>2013-06-19T11:33:30Z</time>
      </trkpt>
      <trkpt lat="49.31966" lon="-0.02332">
        <ele>-2</ele>
        <time>2013-06-19T11:33:46Z</time>
      </trkpt>
      <trkpt lat="49.31961" lon="-0.02386">
        <ele>-1</ele>
        <time>2013-06-19T11:34:11Z</time>
      </trkpt>
      <trkpt lat="49.31955" lon="-0.02417">
        <ele>-1</ele>
        <time>2013-06-19T11:34:26Z</time>
      </trkpt>
      <trkpt lat="49.3195" lon="-0.02452">
        <ele>-1</ele>
        <time>2013-06-19T11:34:42Z</time>
      </trkpt>
      <trkpt lat="49.31941" lon="-0.02495">
        <ele>-2</ele>
        <time>2013-06-19T11:35:02Z</time>
      </trkpt>
      <trkpt lat="49.31936" lon="-0.02525">
        <ele>-5</ele>
        <time>2013-06-19T11:35:15Z</time>
      </trkpt>
      <trkpt lat="49.31933" lon="-0.0254">
        <ele>-6</ele>
        <time>2013-06-19T11:35:22Z</time>
      </trkpt>
      <trkpt lat="49.31923" lon="-0.02585">
        <ele>-4</ele>
        <time>2013-06-19T11:35:44Z</time>
      </trkpt>
      <trkpt lat="49.31915" lon="-0.02619">
        <ele>-4</ele>
        <time>2013-06-19T11:36:00Z</time>
      </trkpt>
      <trkpt lat="49.31905" lon="-0.02667">
        <ele>-6</ele>
        <time>2013-06-19T11:36:23Z</time>
      </trkpt>
      <trkpt lat="49.31894" lon="-0.0271">
        <ele>-7</ele>
        <time>2013-06-19T11:36:44Z</time>
      </trkpt>
      <trkpt lat="49.31886" lon="-0.02744">
        <ele>-7</ele>
        <time>2013-06-19T11:37:01Z</time>
      </trkpt>
      <trkpt lat="49.31886" lon="-0.02748">
        <ele>-7</ele>
        <time>2013-06-19T11:37:16Z</time>
      </trkpt>
      <trkpt lat="49.31884" lon="-0.02753">
        <ele>-6</ele>
        <time>2013-06-19T11:37:33Z</time>
      </trkpt>
      <trkpt lat="49.31874" lon="-0.02794">
        <ele>-6</ele>
        <time>2013-06-19T11:37:55Z</time>
      </trkpt>
      <trkpt lat="49.3187" lon="-0.02806">
        <ele>-6</ele>
        <time>2013-06-19T11:38:01Z</time>
      </trkpt>
      <trkpt lat="49.31866" lon="-0.02813">
        <ele>-6</ele>
        <time>2013-06-19T11:38:06Z</time>
      </trkpt>
      <trkpt lat="49.31852" lon="-0.02864">
        <ele>-6</ele>
        <time>2013-06-19T11:38:32Z</time>
      </trkpt>
      <trkpt lat="49.3184" lon="-0.02909">
        <ele>-8</ele>
        <time>2013-06-19T11:38:54Z</time>
      </trkpt>
      <trkpt lat="49.31822" lon="-0.0296">
        <ele>-9</ele>
        <time>2013-06-19T11:39:20Z</time>
      </trkpt>
      <trkpt lat="49.31808" lon="-0.03011">
        <ele>-9</ele>
        <time>2013-06-19T11:39:47Z</time>
      </trkpt>
      <trkpt lat="49.31797" lon="-0.03056">
        <ele>-10</ele>
        <time>2013-06-19T11:40:10Z</time>
      </trkpt>
      <trkpt lat="49.31788" lon="-0.03091">
        <ele>-10</ele>
        <time>2013-06-19T11:40:29Z</time>
      </trkpt>
      <trkpt lat="49.31788" lon="-0.03093">
        <ele>-10</ele>
        <time>2013-06-19T11:40:30Z</time>
      </trkpt>
      <trkpt lat="49.3178" lon="-0.03126">
        <ele>-10</ele>
        <time>2013-06-19T11:40:47Z</time>
      </trkpt>
      <trkpt lat="49.31777" lon="-0.03134">
        <ele>-10</ele>
        <time>2013-06-19T11:40:51Z</time>
      </trkpt>
      <trkpt lat="49.31768" lon="-0.03179">
        <ele>-10</ele>
        <time>2013-06-19T11:41:14Z</time>
      </trkpt>
      <trkpt lat="49.31764" lon="-0.03192">
        <ele>-10</ele>
        <time>2013-06-19T11:41:21Z</time>
      </trkpt>
      <trkpt lat="49.31755" lon="-0.03227">
        <ele>-10</ele>
        <time>2013-06-19T11:41:40Z</time>
      </trkpt>
      <trkpt lat="49.3174" lon="-0.03274">
        <ele>-9</ele>
        <time>2013-06-19T11:42:06Z</time>
      </trkpt>
      <trkpt lat="49.31725" lon="-0.03319">
        <ele>-11</ele>
        <time>2013-06-19T11:42:30Z</time>
      </trkpt>
      <trkpt lat="49.31725" lon="-0.03324">
        <ele>-9</ele>
        <time>2013-06-19T11:42:45Z</time>
      </trkpt>
      <trkpt lat="49.31717" lon="-0.03348">
        <ele>-9</ele>
        <time>2013-06-19T11:43:02Z</time>
      </trkpt>
      <trkpt lat="49.31711" lon="-0.03373">
        <ele>-10</ele>
        <time>2013-06-19T11:43:21Z</time>
      </trkpt>
      <trkpt lat="49.31709" lon="-0.03381">
        <ele>-11</ele>
        <time>2013-06-19T11:43:54Z</time>
      </trkpt>
      <trkpt lat="49.31696" lon="-0.03432">
        <ele>-11</ele>
        <time>2013-06-19T11:44:18Z</time>
      </trkpt>
      <trkpt lat="49.3168" lon="-0.03486">
        <ele>-10</ele>
        <time>2013-06-19T11:44:44Z</time>
      </trkpt>
      <trkpt lat="49.31667" lon="-0.03534">
        <ele>-9</ele>
        <time>2013-06-19T11:45:08Z</time>
      </trkpt>
      <trkpt lat="49.31652" lon="-0.0359">
        <ele>-9</ele>
        <time>2013-06-19T11:45:35Z</time>
      </trkpt>
      <trkpt lat="49.31646" lon="-0.0364">
        <ele>-8</ele>
        <time>2013-06-19T11:46:00Z</time>
      </trkpt>
      <trkpt lat="49.31646" lon="-0.03639">
        <ele>-6</ele>
        <time>2013-06-19T11:46:10Z</time>
      </trkpt>
      <trkpt lat="49.31646" lon="-0.03646">
        <ele>-6</ele>
        <time>2013-06-19T11:46:14Z</time>
      </trkpt>
      <trkpt lat="49.31641" lon="-0.03697">
        <ele>-7</ele>
        <time>2013-06-19T11:46:38Z</time>
      </trkpt>
      <trkpt lat="49.3163" lon="-0.03747">
        <ele>-7</ele>
        <time>2013-06-19T11:47:01Z</time>
      </trkpt>
      <trkpt lat="49.31615" lon="-0.03808">
        <ele>-7</ele>
        <time>2013-06-19T11:47:29Z</time>
      </trkpt>
      <trkpt lat="49.31612" lon="-0.03825">
        <ele>-8</ele>
        <time>2013-06-19T11:47:37Z</time>
      </trkpt>
      <trkpt lat="49.3161" lon="-0.0383">
        <ele>-8</ele>
        <time>2013-06-19T11:47:40Z</time>
      </trkpt>
      <trkpt lat="49.31606" lon="-0.0386">
        <ele>-8</ele>
        <time>2013-06-19T11:48:04Z</time>
      </trkpt>
      <trkpt lat="49.31608" lon="-0.03884">
        <ele>-7</ele>
        <time>2013-06-19T11:48:22Z</time>
      </trkpt>
      <trkpt lat="49.31609" lon="-0.03885">
        <ele>-8</ele>
        <time>2013-06-19T11:48:23Z</time>
      </trkpt>
      <trkpt lat="49.31615" lon="-0.03892">
        <ele>-7</ele>
        <time>2013-06-19T11:48:40Z</time>
      </trkpt>
      <trkpt lat="49.31608" lon="-0.03892">
        <ele>-7</ele>
        <time>2013-06-19T11:48:52Z</time>
      </trkpt>
      <trkpt lat="49.31605" lon="-0.03892">
        <ele>-8</ele>
        <time>2013-06-19T11:49:09Z</time>
      </trkpt>
      <trkpt lat="49.31603" lon="-0.03893">
        <ele>-7</ele>
        <time>2013-06-19T11:49:27Z</time>
      </trkpt>
      <trkpt lat="49.316" lon="-0.03892">
        <ele>-8</ele>
        <time>2013-06-19T11:49:45Z</time>
      </trkpt>
      <trkpt lat="49.31599" lon="-0.03892">
        <ele>-8</ele>
        <time>2013-06-19T11:50:23Z</time>
      </trkpt>
      <trkpt lat="49.31598" lon="-0.03893">
        <ele>-7</ele>
        <time>2013-06-19T11:50:42Z</time>
      </trkpt>
      <trkpt lat="49.31598" lon="-0.0389">
        <ele>-6</ele>
        <time>2013-06-19T11:51:00Z</time>
      </trkpt>
      <trkpt lat="49.31599" lon="-0.03891">
        <ele>-7</ele>
        <time>2013-06-19T11:51:29Z</time>
      </trkpt>
      <trkpt lat="49.31593" lon="-0.03893">
        <ele>-7</ele>
        <time>2013-06-19T11:51:44Z</time>
      </trkpt>
      <trkpt lat="49.31593" lon="-0.03895">
        <ele>-7</ele>
        <time>2013-06-19T11:52:00Z</time>
      </trkpt>
      <trkpt lat="49.31593" lon="-0.03895">
        <ele>-7</ele>
        <time>2013-06-19T11:52:05Z</time>
      </trkpt>
      <trkpt lat="49.31593" lon="-0.03898">
        <ele>-7</ele>
        <time>2013-06-19T11:52:07Z</time>
      </trkpt>
      <trkpt lat="49.31593" lon="-0.03902">
        <ele>-8</ele>
        <time>2013-06-19T11:52:10Z</time>
      </trkpt>
      <trkpt lat="49.31581" lon="-0.0393">
        <ele>-8</ele>
        <time>2013-06-19T11:52:26Z</time>
      </trkpt>
      <trkpt lat="49.31579" lon="-0.03932">
        <ele>-8</ele>
        <time>2013-06-19T11:52:28Z</time>
      </trkpt>
      <trkpt lat="49.31564" lon="-0.03983">
        <ele>-8</ele>
        <time>2013-06-19T11:52:55Z</time>
      </trkpt>
      <trkpt lat="49.31551" lon="-0.0402">
        <ele>-8</ele>
        <time>2013-06-19T11:53:15Z</time>
      </trkpt>
      <trkpt lat="49.31548" lon="-0.04023">
        <ele>-8</ele>
        <time>2013-06-19T11:53:19Z</time>
      </trkpt>
      <trkpt lat="49.31536" lon="-0.04046">
        <ele>-8</ele>
        <time>2013-06-19T11:53:33Z</time>
      </trkpt>
      <trkpt lat="49.31526" lon="-0.0407">
        <ele>-8</ele>
        <time>2013-06-19T11:53:46Z</time>
      </trkpt>
      <trkpt lat="49.31525" lon="-0.04073">
        <ele>-8</ele>
        <time>2013-06-19T11:53:51Z</time>
      </trkpt>
      <trkpt lat="49.31524" lon="-0.04075">
        <ele>-8</ele>
        <time>2013-06-19T11:53:53Z</time>
      </trkpt>
      <trkpt lat="49.31523" lon="-0.04088">
        <ele>-9</ele>
        <time>2013-06-19T11:54:01Z</time>
      </trkpt>
      <trkpt lat="49.31506" lon="-0.04154">
        <ele>-9</ele>
        <time>2013-06-19T11:54:34Z</time>
      </trkpt>
      <trkpt lat="49.31487" lon="-0.04222">
        <ele>-9</ele>
        <time>2013-06-19T11:55:09Z</time>
      </trkpt>
      <trkpt lat="49.31484" lon="-0.04252">
        <ele>-9</ele>
        <time>2013-06-19T11:55:23Z</time>
      </trkpt>
      <trkpt lat="49.31483" lon="-0.04255">
        <ele>-9</ele>
        <time>2013-06-19T11:55:26Z</time>
      </trkpt>
      <trkpt lat="49.31485" lon="-0.04264">
        <ele>-9</ele>
        <time>2013-06-19T11:55:31Z</time>
      </trkpt>
      <trkpt lat="49.31474" lon="-0.04318">
        <ele>-9</ele>
        <time>2013-06-19T11:55:56Z</time>
      </trkpt>
      <trkpt lat="49.31463" lon="-0.04378">
        <ele>-10</ele>
        <time>2013-06-19T11:56:24Z</time>
      </trkpt>
      <trkpt lat="49.31456" lon="-0.04415">
        <ele>-10</ele>
        <time>2013-06-19T11:56:41Z</time>
      </trkpt>
      <trkpt lat="49.31442" lon="-0.04481">
        <ele>-10</ele>
        <time>2013-06-19T11:57:11Z</time>
      </trkpt>
      <trkpt lat="49.31425" lon="-0.04546">
        <ele>-10</ele>
        <time>2013-06-19T11:57:42Z</time>
      </trkpt>
      <trkpt lat="49.31412" lon="-0.04594">
        <ele>-10</ele>
        <time>2013-06-19T11:58:05Z</time>
      </trkpt>
      <trkpt lat="49.31403" lon="-0.04634">
        <ele>-10</ele>
        <time>2013-06-19T11:58:24Z</time>
      </trkpt>
      <trkpt lat="49.31386" lon="-0.04693">
        <ele>-10</ele>
        <time>2013-06-19T11:58:54Z</time>
      </trkpt>
      <trkpt lat="49.31377" lon="-0.04722">
        <ele>-10</ele>
        <time>2013-06-19T11:59:09Z</time>
      </trkpt>
      <trkpt lat="49.31365" lon="-0.04773">
        <ele>-10</ele>
        <time>2013-06-19T11:59:35Z</time>
      </trkpt>
      <trkpt lat="49.31353" lon="-0.04829">
        <ele>-10</ele>
        <time>2013-06-19T12:00:01Z</time>
      </trkpt>
      <trkpt lat="49.31334" lon="-0.04884">
        <ele>-9</ele>
        <time>2013-06-19T12:00:28Z</time>
      </trkpt>
      <trkpt lat="49.31318" lon="-0.04936">
        <ele>-10</ele>
        <time>2013-06-19T12:00:53Z</time>
      </trkpt>
      <trkpt lat="49.31301" lon="-0.04983">
        <ele>-10</ele>
        <time>2013-06-19T12:01:17Z</time>
      </trkpt>
      <trkpt lat="49.31289" lon="-0.05023">
        <ele>-11</ele>
        <time>2013-06-19T12:01:37Z</time>
      </trkpt>
      <trkpt lat="49.31275" lon="-0.05075">
        <ele>-11</ele>
        <time>2013-06-19T12:02:03Z</time>
      </trkpt>
      <trkpt lat="49.31257" lon="-0.05138">
        <ele>-10</ele>
        <time>2013-06-19T12:02:34Z</time>
      </trkpt>
      <trkpt lat="49.31243" lon="-0.05192">
        <ele>-11</ele>
        <time>2013-06-19T12:03:00Z</time>
      </trkpt>
      <trkpt lat="49.31242" lon="-0.05191">
        <ele>-9</ele>
        <time>2013-06-19T12:03:21Z</time>
      </trkpt>
      <trkpt lat="49.31226" lon="-0.05247">
        <ele>-11</ele>
        <time>2013-06-19T12:03:50Z</time>
      </trkpt>
      <trkpt lat="49.31214" lon="-0.05295">
        <ele>-10</ele>
        <time>2013-06-19T12:04:15Z</time>
      </trkpt>
      <trkpt lat="49.31213" lon="-0.05299">
        <ele>-10</ele>
        <time>2013-06-19T12:04:17Z</time>
      </trkpt>
      <trkpt lat="49.31208" lon="-0.05313">
        <ele>-11</ele>
        <time>2013-06-19T12:04:29Z</time>
      </trkpt>
      <trkpt lat="49.31189" lon="-0.0537">
        <ele>-11</ele>
        <time>2013-06-19T12:04:57Z</time>
      </trkpt>
      <trkpt lat="49.31167" lon="-0.0543">
        <ele>-11</ele>
        <time>2013-06-19T12:05:27Z</time>
      </trkpt>
      <trkpt lat="49.3115" lon="-0.05485">
        <ele>-10</ele>
        <time>2013-06-19T12:05:54Z</time>
      </trkpt>
      <trkpt lat="49.31133" lon="-0.05541">
        <ele>-11</ele>
        <time>2013-06-19T12:06:21Z</time>
      </trkpt>
      <trkpt lat="49.3113" lon="-0.05555">
        <ele>-11</ele>
        <time>2013-06-19T12:06:28Z</time>
      </trkpt>
      <trkpt lat="49.31127" lon="-0.05562">
        <ele>-11</ele>
        <time>2013-06-19T12:06:32Z</time>
      </trkpt>
      <trkpt lat="49.31112" lon="-0.05613">
        <ele>-11</ele>
        <time>2013-06-19T12:06:57Z</time>
      </trkpt>
      <trkpt lat="49.31096" lon="-0.0566">
        <ele>-11</ele>
        <time>2013-06-19T12:07:20Z</time>
      </trkpt>
      <trkpt lat="49.31079" lon="-0.05717">
        <ele>-11</ele>
        <time>2013-06-19T12:07:48Z</time>
      </trkpt>
      <trkpt lat="49.31065" lon="-0.05765">
        <ele>-11</ele>
        <time>2013-06-19T12:08:12Z</time>
      </trkpt>
      <trkpt lat="49.3105" lon="-0.05814">
        <ele>-11</ele>
        <time>2013-06-19T12:08:36Z</time>
      </trkpt>
      <trkpt lat="49.31029" lon="-0.0588">
        <ele>-12</ele>
        <time>2013-06-19T12:09:10Z</time>
      </trkpt>
      <trkpt lat="49.31015" lon="-0.05916">
        <ele>-12</ele>
        <time>2013-06-19T12:09:29Z</time>
      </trkpt>
      <trkpt lat="49.30996" lon="-0.05969">
        <ele>-12</ele>
        <time>2013-06-19T12:09:56Z</time>
      </trkpt>
      <trkpt lat="49.30977" lon="-0.0602">
        <ele>-13</ele>
        <time>2013-06-19T12:10:22Z</time>
      </trkpt>
      <trkpt lat="49.30956" lon="-0.06072">
        <ele>-12</ele>
        <time>2013-06-19T12:10:50Z</time>
      </trkpt>
      <trkpt lat="49.30937" lon="-0.06118">
        <ele>-12</ele>
        <time>2013-06-19T12:11:15Z</time>
      </trkpt>
      <trkpt lat="49.30916" lon="-0.06175">
        <ele>-12</ele>
        <time>2013-06-19T12:11:45Z</time>
      </trkpt>
      <trkpt lat="49.30913" lon="-0.06182">
        <ele>-11</ele>
        <time>2013-06-19T12:11:49Z</time>
      </trkpt>
      <trkpt lat="49.30905" lon="-0.06204">
        <ele>-11</ele>
        <time>2013-06-19T12:12:02Z</time>
      </trkpt>
      <trkpt lat="49.30888" lon="-0.06261">
        <ele>-11</ele>
        <time>2013-06-19T12:12:31Z</time>
      </trkpt>
      <trkpt lat="49.30871" lon="-0.06313">
        <ele>-11</ele>
        <time>2013-06-19T12:12:57Z</time>
      </trkpt>
      <trkpt lat="49.30853" lon="-0.06369">
        <ele>-11</ele>
        <time>2013-06-19T12:13:24Z</time>
      </trkpt>
      <trkpt lat="49.3084" lon="-0.06415">
        <ele>-12</ele>
        <time>2013-06-19T12:13:46Z</time>
      </trkpt>
      <trkpt lat="49.30823" lon="-0.06469">
        <ele>-12</ele>
        <time>2013-06-19T12:14:13Z</time>
      </trkpt>
      <trkpt lat="49.3081" lon="-0.06515">
        <ele>-14</ele>
        <time>2013-06-19T12:14:36Z</time>
      </trkpt>
      <trkpt lat="49.30795" lon="-0.06567">
        <ele>-13</ele>
        <time>2013-06-19T12:15:03Z</time>
      </trkpt>
      <trkpt lat="49.30771" lon="-0.06631">
        <ele>-13</ele>
        <time>2013-06-19T12:15:38Z</time>
      </trkpt>
      <trkpt lat="49.30754" lon="-0.06678">
        <ele>-13</ele>
        <time>2013-06-19T12:16:03Z</time>
      </trkpt>
      <trkpt lat="49.30739" lon="-0.06722">
        <ele>-13</ele>
        <time>2013-06-19T12:16:26Z</time>
      </trkpt>
      <trkpt lat="49.30726" lon="-0.06754">
        <ele>-15</ele>
        <time>2013-06-19T12:16:43Z</time>
      </trkpt>
      <trkpt lat="49.30711" lon="-0.06794">
        <ele>-13</ele>
        <time>2013-06-19T12:17:06Z</time>
      </trkpt>
      <trkpt lat="49.30707" lon="-0.06791">
        <ele>-12</ele>
        <time>2013-06-19T12:17:20Z</time>
      </trkpt>
      <trkpt lat="49.30707" lon="-0.06792">
        <ele>-12</ele>
        <time>2013-06-19T12:17:38Z</time>
      </trkpt>
      <trkpt lat="49.30707" lon="-0.06792">
        <ele>-11</ele>
        <time>2013-06-19T12:19:00Z</time>
      </trkpt>
      <trkpt lat="49.30708" lon="-0.06792">
        <ele>-10</ele>
        <time>2013-06-19T12:19:44Z</time>
      </trkpt>
      <trkpt lat="49.30709" lon="-0.068">
        <ele>-8</ele>
        <time>2013-06-19T12:20:18Z</time>
      </trkpt>
      <trkpt lat="49.30707" lon="-0.0682">
        <ele>-10</ele>
        <time>2013-06-19T12:20:34Z</time>
      </trkpt>
      <trkpt lat="49.30708" lon="-0.06832">
        <ele>-10</ele>
        <time>2013-06-19T12:20:42Z</time>
      </trkpt>
      <trkpt lat="49.30698" lon="-0.06877">
        <ele>-9</ele>
        <time>2013-06-19T12:21:09Z</time>
      </trkpt>
      <trkpt lat="49.30697" lon="-0.06879">
        <ele>-9</ele>
        <time>2013-06-19T12:21:10Z</time>
      </trkpt>
      <trkpt lat="49.30691" lon="-0.06909">
        <ele>-9</ele>
        <time>2013-06-19T12:21:26Z</time>
      </trkpt>
      <trkpt lat="49.30681" lon="-0.06948">
        <ele>-9</ele>
        <time>2013-06-19T12:21:48Z</time>
      </trkpt>
      <trkpt lat="49.30664" lon="-0.06989">
        <ele>-7</ele>
        <time>2013-06-19T12:22:16Z</time>
      </trkpt>
      <trkpt lat="49.30657" lon="-0.07002">
        <ele>-7</ele>
        <time>2013-06-19T12:22:25Z</time>
      </trkpt>
      <trkpt lat="49.30656" lon="-0.07005">
        <ele>-7</ele>
        <time>2013-06-19T12:22:29Z</time>
      </trkpt>
      <trkpt lat="49.30648" lon="-0.07037">
        <ele>-7</ele>
        <time>2013-06-19T12:22:52Z</time>
      </trkpt>
      <trkpt lat="49.30647" lon="-0.07037">
        <ele>-7</ele>
        <time>2013-06-19T12:23:23Z</time>
      </trkpt>
      <trkpt lat="49.30648" lon="-0.07034">
        <ele>-6</ele>
        <time>2013-06-19T12:23:37Z</time>
      </trkpt>
      <trkpt lat="49.30648" lon="-0.07037">
        <ele>-6</ele>
        <time>2013-06-19T12:24:13Z</time>
      </trkpt>
      <trkpt lat="49.30649" lon="-0.07037">
        <ele>-5</ele>
        <time>2013-06-19T12:24:29Z</time>
      </trkpt>
      <trkpt lat="49.30643" lon="-0.07081">
        <ele>-6</ele>
        <time>2013-06-19T12:24:53Z</time>
      </trkpt>
      <trkpt lat="49.30634" lon="-0.07115">
        <ele>-7</ele>
        <time>2013-06-19T12:25:14Z</time>
      </trkpt>
      <trkpt lat="49.30616" lon="-0.07145">
        <ele>-5</ele>
        <time>2013-06-19T12:25:40Z</time>
      </trkpt>
      <trkpt lat="49.30615" lon="-0.07145">
        <ele>-5</ele>
        <time>2013-06-19T12:25:42Z</time>
      </trkpt>
      <trkpt lat="49.30608" lon="-0.07141">
        <ele>-5</ele>
        <time>2013-06-19T12:25:49Z</time>
      </trkpt>
      <trkpt lat="49.30597" lon="-0.07144">
        <ele>-3</ele>
        <time>2013-06-19T12:26:03Z</time>
      </trkpt>
      <trkpt lat="49.30591" lon="-0.07143">
        <ele>-1</ele>
        <time>2013-06-19T12:26:09Z</time>
      </trkpt>
      <trkpt lat="49.30586" lon="-0.07133">
        <ele>4</ele>
        <time>2013-06-19T12:26:26Z</time>
      </trkpt>
      <trkpt lat="49.30582" lon="-0.07125">
        <ele>8</ele>
        <time>2013-06-19T12:26:42Z</time>
      </trkpt>
      <trkpt lat="49.3057" lon="-0.07118">
        <ele>17</ele>
        <time>2013-06-19T12:27:12Z</time>
      </trkpt>
      <trkpt lat="49.30567" lon="-0.07118">
        <ele>20</ele>
        <time>2013-06-19T12:27:29Z</time>
      </trkpt>
      <trkpt lat="49.30562" lon="-0.07115">
        <ele>21</ele>
        <time>2013-06-19T12:27:40Z</time>
      </trkpt>
      <trkpt lat="49.30557" lon="-0.07108">
        <ele>28</ele>
        <time>2013-06-19T12:27:58Z</time>
      </trkpt>
      <trkpt lat="49.30552" lon="-0.07108">
        <ele>27</ele>
        <time>2013-06-19T12:28:15Z</time>
      </trkpt>
      <trkpt lat="49.30551" lon="-0.07106">
        <ele>27</ele>
        <time>2013-06-19T12:28:17Z</time>
      </trkpt>
      <trkpt lat="49.30541" lon="-0.071">
        <ele>32</ele>
        <time>2013-06-19T12:28:38Z</time>
      </trkpt>
      <trkpt lat="49.3053" lon="-0.0709">
        <ele>32</ele>
        <time>2013-06-19T12:29:00Z</time>
      </trkpt>
      <trkpt lat="49.30527" lon="-0.07069">
        <ele>34</ele>
        <time>2013-06-19T12:29:16Z</time>
      </trkpt>
      <trkpt lat="49.30528" lon="-0.07042">
        <ele>37</ele>
        <time>2013-06-19T12:29:36Z</time>
      </trkpt>
      <trkpt lat="49.30527" lon="-0.07018">
        <ele>38</ele>
        <time>2013-06-19T12:29:55Z</time>
      </trkpt>
      <trkpt lat="49.30527" lon="-0.07011">
        <ele>39</ele>
        <time>2013-06-19T12:30:03Z</time>
      </trkpt>
      <trkpt lat="49.30525" lon="-0.06993">
        <ele>40</ele>
        <time>2013-06-19T12:30:21Z</time>
      </trkpt>
      <trkpt lat="49.30522" lon="-0.06973">
        <ele>41</ele>
        <time>2013-06-19T12:30:37Z</time>
      </trkpt>
      <trkpt lat="49.30519" lon="-0.06961">
        <ele>42</ele>
        <time>2013-06-19T12:30:51Z</time>
      </trkpt>
      <trkpt lat="49.30515" lon="-0.06947">
        <ele>43</ele>
        <time>2013-06-19T12:31:03Z</time>
      </trkpt>
      <trkpt lat="49.30513" lon="-0.06934">
        <ele>44</ele>
        <time>2013-06-19T12:31:11Z</time>
      </trkpt>
      <trkpt lat="49.30512" lon="-0.06931">
        <ele>45</ele>
        <time>2013-06-19T12:31:26Z</time>
      </trkpt>
      <trkpt lat="49.30511" lon="-0.06924">
        <ele>45</ele>
        <time>2013-06-19T12:31:31Z</time>
      </trkpt>
      <trkpt lat="49.30509" lon="-0.06897">
        <ele>50</ele>
        <time>2013-06-19T12:31:51Z</time>
      </trkpt>
      <trkpt lat="49.30506" lon="-0.0689">
        <ele>53</ele>
        <time>2013-06-19T12:32:11Z</time>
      </trkpt>
      <trkpt lat="49.30499" lon="-0.06874">
        <ele>58</ele>
        <time>2013-06-19T12:32:34Z</time>
      </trkpt>
      <trkpt lat="49.30495" lon="-0.06863">
        <ele>61</ele>
        <time>2013-06-19T12:32:54Z</time>
      </trkpt>
      <trkpt lat="49.30492" lon="-0.06857">
        <ele>61</ele>
        <time>2013-06-19T12:33:10Z</time>
      </trkpt>
      <trkpt lat="49.30491" lon="-0.06856">
        <ele>61</ele>
        <time>2013-06-19T12:34:01Z</time>
      </trkpt>
      <trkpt lat="49.30491" lon="-0.06856">
        <ele>61</ele>
        <time>2013-06-19T12:34:33Z</time>
      </trkpt>
      <trkpt lat="49.3049" lon="-0.06853">
        <ele>62</ele>
        <time>2013-06-19T12:34:36Z</time>
      </trkpt>
      <trkpt lat="49.3049" lon="-0.06838">
        <ele>64</ele>
        <time>2013-06-19T12:34:52Z</time>
      </trkpt>
      <trkpt lat="49.30491" lon="-0.06839">
        <ele>65</ele>
        <time>2013-06-19T12:35:10Z</time>
      </trkpt>
      <trkpt lat="49.30491" lon="-0.0684">
        <ele>65</ele>
        <time>2013-06-19T12:35:17Z</time>
      </trkpt>
      <trkpt lat="49.30492" lon="-0.06836">
        <ele>65</ele>
        <time>2013-06-19T12:35:20Z</time>
      </trkpt>
      <trkpt lat="49.30489" lon="-0.06813">
        <ele>68</ele>
        <time>2013-06-19T12:35:39Z</time>
      </trkpt>
      <trkpt lat="49.30487" lon="-0.06798">
        <ele>72</ele>
        <time>2013-06-19T12:36:00Z</time>
      </trkpt>
      <trkpt lat="49.30486" lon="-0.06784">
        <ele>72</ele>
        <time>2013-06-19T12:36:19Z</time>
      </trkpt>
      <trkpt lat="49.30486" lon="-0.06771">
        <ele>76</ele>
        <time>2013-06-19T12:36:37Z</time>
      </trkpt>
      <trkpt lat="49.30489" lon="-0.06769">
        <ele>77</ele>
        <time>2013-06-19T12:36:50Z</time>
      </trkpt>
      <trkpt lat="49.30488" lon="-0.06766">
        <ele>77</ele>
        <time>2013-06-19T12:37:16Z</time>
      </trkpt>
      <trkpt lat="49.3049" lon="-0.06765">
        <ele>75</ele>
        <time>2013-06-19T12:37:40Z</time>
      </trkpt>
      <trkpt lat="49.30491" lon="-0.06765">
        <ele>75</ele>
        <time>2013-06-19T12:39:36Z</time>
      </trkpt>
      <trkpt lat="49.3049" lon="-0.06764">
        <ele>76</ele>
        <time>2013-06-19T12:41:12Z</time>
      </trkpt>
      <trkpt lat="49.30489" lon="-0.06751">
        <ele>76</ele>
        <time>2013-06-19T12:41:25Z</time>
      </trkpt>
      <trkpt lat="49.30484" lon="-0.06746">
        <ele>77</ele>
        <time>2013-06-19T12:41:49Z</time>
      </trkpt>
      <trkpt lat="49.3048" lon="-0.06723">
        <ele>80</ele>
        <time>2013-06-19T12:42:13Z</time>
      </trkpt>
      <trkpt lat="49.30481" lon="-0.06707">
        <ele>79</ele>
        <time>2013-06-19T12:42:30Z</time>
      </trkpt>
      <trkpt lat="49.30482" lon="-0.067">
        <ele>79</ele>
        <time>2013-06-19T12:42:35Z</time>
      </trkpt>
      <trkpt lat="49.30482" lon="-0.06692">
        <ele>79</ele>
        <time>2013-06-19T12:42:41Z</time>
      </trkpt>
      <trkpt lat="49.30471" lon="-0.06675">
        <ele>83</ele>
        <time>2013-06-19T12:42:58Z</time>
      </trkpt>
      <trkpt lat="49.30471" lon="-0.06655">
        <ele>89</ele>
        <time>2013-06-19T12:43:14Z</time>
      </trkpt>
      <trkpt lat="49.30474" lon="-0.06633">
        <ele>93</ele>
        <time>2013-06-19T12:43:26Z</time>
      </trkpt>
      <trkpt lat="49.30473" lon="-0.06628">
        <ele>94</ele>
        <time>2013-06-19T12:43:29Z</time>
      </trkpt>
      <trkpt lat="49.30473" lon="-0.06618">
        <ele>97</ele>
        <time>2013-06-19T12:43:35Z</time>
      </trkpt>
      <trkpt lat="49.30467" lon="-0.06591">
        <ele>103</ele>
        <time>2013-06-19T12:43:54Z</time>
      </trkpt>
      <trkpt lat="49.30468" lon="-0.06551">
        <ele>108</ele>
        <time>2013-06-19T12:44:16Z</time>
      </trkpt>
      <trkpt lat="49.30468" lon="-0.06513">
        <ele>112</ele>
        <time>2013-06-19T12:44:31Z</time>
      </trkpt>
      <trkpt lat="49.30476" lon="-0.06496">
        <ele>117</ele>
        <time>2013-06-19T12:44:43Z</time>
      </trkpt>
      <trkpt lat="49.30476" lon="-0.06495">
        <ele>117</ele>
        <time>2013-06-19T12:44:44Z</time>
      </trkpt>
      <trkpt lat="49.30482" lon="-0.06461">
        <ele>124</ele>
        <time>2013-06-19T12:44:59Z</time>
      </trkpt>
      <trkpt lat="49.30485" lon="-0.06439">
        <ele>127</ele>
        <time>2013-06-19T12:45:11Z</time>
      </trkpt>
      <trkpt lat="49.30478" lon="-0.06427">
        <ele>123</ele>
        <time>2013-06-19T12:45:45Z</time>
      </trkpt>
      <trkpt lat="49.3048" lon="-0.06424">
        <ele>121</ele>
        <time>2013-06-19T12:47:25Z</time>
      </trkpt>
      <trkpt lat="49.30491" lon="-0.06395">
        <ele>121</ele>
        <time>2013-06-19T12:48:20Z</time>
      </trkpt>
      <trkpt lat="49.30496" lon="-0.0637">
        <ele>125</ele>
        <time>2013-06-19T12:48:35Z</time>
      </trkpt>
      <trkpt lat="49.30499" lon="-0.06357">
        <ele>126</ele>
        <time>2013-06-19T12:48:41Z</time>
      </trkpt>
      <trkpt lat="49.305" lon="-0.06348">
        <ele>127</ele>
        <time>2013-06-19T12:48:45Z</time>
      </trkpt>
      <trkpt lat="49.30501" lon="-0.06335">
        <ele>129</ele>
        <time>2013-06-19T12:48:57Z</time>
      </trkpt>
      <trkpt lat="49.30504" lon="-0.06323">
        <ele>131</ele>
        <time>2013-06-19T12:49:08Z</time>
      </trkpt>
      <trkpt lat="49.30508" lon="-0.06307">
        <ele>129</ele>
        <time>2013-06-19T12:49:20Z</time>
      </trkpt>
      <trkpt lat="49.30512" lon="-0.06289">
        <ele>123</ele>
        <time>2013-06-19T12:49:30Z</time>
      </trkpt>
      <trkpt lat="49.30514" lon="-0.0629">
        <ele>122</ele>
        <time>2013-06-19T12:49:34Z</time>
      </trkpt>
      <trkpt lat="49.30525" lon="-0.06289">
        <ele>118</ele>
        <time>2013-06-19T12:49:46Z</time>
      </trkpt>
      <trkpt lat="49.30528" lon="-0.06279">
        <ele>115</ele>
        <time>2013-06-19T12:50:03Z</time>
      </trkpt>
      <trkpt lat="49.30525" lon="-0.06275">
        <ele>114</ele>
        <time>2013-06-19T12:50:23Z</time>
      </trkpt>
      <trkpt lat="49.30521" lon="-0.06271">
        <ele>113</ele>
        <time>2013-06-19T12:50:27Z</time>
      </trkpt>
      <trkpt lat="49.30508" lon="-0.06242">
        <ele>113</ele>
        <time>2013-06-19T12:50:45Z</time>
      </trkpt>
      <trkpt lat="49.30507" lon="-0.0623">
        <ele>113</ele>
        <time>2013-06-19T12:50:53Z</time>
      </trkpt>
      <trkpt lat="49.30506" lon="-0.06213">
        <ele>112</ele>
        <time>2013-06-19T12:51:02Z</time>
      </trkpt>
      <trkpt lat="49.30503" lon="-0.0618">
        <ele>112</ele>
        <time>2013-06-19T12:51:21Z</time>
      </trkpt>
      <trkpt lat="49.30501" lon="-0.06158">
        <ele>115</ele>
        <time>2013-06-19T12:51:40Z</time>
      </trkpt>
      <trkpt lat="49.305" lon="-0.06154">
        <ele>115</ele>
        <time>2013-06-19T12:51:55Z</time>
      </trkpt>
      <trkpt lat="49.30498" lon="-0.06128">
        <ele>117</ele>
        <time>2013-06-19T12:52:09Z</time>
      </trkpt>
      <trkpt lat="49.30496" lon="-0.06125">
        <ele>120</ele>
        <time>2013-06-19T12:52:12Z</time>
      </trkpt>
      <trkpt lat="49.30492" lon="-0.06088">
        <ele>118</ele>
        <time>2013-06-19T12:52:27Z</time>
      </trkpt>
      <trkpt lat="49.30486" lon="-0.06055">
        <ele>118</ele>
        <time>2013-06-19T12:52:42Z</time>
      </trkpt>
      <trkpt lat="49.30485" lon="-0.06042">
        <ele>121</ele>
        <time>2013-06-19T12:52:48Z</time>
      </trkpt>
      <trkpt lat="49.30484" lon="-0.06036">
        <ele>122</ele>
        <time>2013-06-19T12:52:51Z</time>
      </trkpt>
      <trkpt lat="49.30487" lon="-0.05997">
        <ele>129</ele>
        <time>2013-06-19T12:53:09Z</time>
      </trkpt>
      <trkpt lat="49.30488" lon="-0.05986">
        <ele>130</ele>
        <time>2013-06-19T12:53:14Z</time>
      </trkpt>
      <trkpt lat="49.30488" lon="-0.05968">
        <ele>131</ele>
        <time>2013-06-19T12:53:22Z</time>
      </trkpt>
      <trkpt lat="49.30489" lon="-0.05937">
        <ele>132</ele>
        <time>2013-06-19T12:53:35Z</time>
      </trkpt>
      <trkpt lat="49.30487" lon="-0.05934">
        <ele>133</ele>
        <time>2013-06-19T12:53:37Z</time>
      </trkpt>
      <trkpt lat="49.30487" lon="-0.05883">
        <ele>130</ele>
        <time>2013-06-19T12:53:57Z</time>
      </trkpt>
      <trkpt lat="49.30486" lon="-0.05878">
        <ele>130</ele>
        <time>2013-06-19T12:54:00Z</time>
      </trkpt>
      <trkpt lat="49.30489" lon="-0.05845">
        <ele>128</ele>
        <time>2013-06-19T12:54:13Z</time>
      </trkpt>
      <trkpt lat="49.30488" lon="-0.05841">
        <ele>128</ele>
        <time>2013-06-19T12:54:15Z</time>
      </trkpt>
      <trkpt lat="49.30487" lon="-0.05836">
        <ele>128</ele>
        <time>2013-06-19T12:54:18Z</time>
      </trkpt>
      <trkpt lat="49.30482" lon="-0.05825">
        <ele>133</ele>
        <time>2013-06-19T12:54:25Z</time>
      </trkpt>
      <trkpt lat="49.30483" lon="-0.058">
        <ele>137</ele>
        <time>2013-06-19T12:54:38Z</time>
      </trkpt>
      <trkpt lat="49.30479" lon="-0.05782">
        <ele>134</ele>
        <time>2013-06-19T12:54:44Z</time>
      </trkpt>
      <trkpt lat="49.30481" lon="-0.05777">
        <ele>132</ele>
        <time>2013-06-19T12:54:47Z</time>
      </trkpt>
      <trkpt lat="49.30482" lon="-0.05774">
        <ele>132</ele>
        <time>2013-06-19T12:54:49Z</time>
      </trkpt>
      <trkpt lat="49.30481" lon="-0.0577">
        <ele>132</ele>
        <time>2013-06-19T12:54:51Z</time>
      </trkpt>
      <trkpt lat="49.30483" lon="-0.05767">
        <ele>130</ele>
        <time>2013-06-19T12:54:58Z</time>
      </trkpt>
      <trkpt lat="49.30484" lon="-0.05764">
        <ele>128</ele>
        <time>2013-06-19T12:55:01Z</time>
      </trkpt>
      <trkpt lat="49.30483" lon="-0.05756">
        <ele>126</ele>
        <time>2013-06-19T12:55:05Z</time>
      </trkpt>
      <trkpt lat="49.30487" lon="-0.05741">
        <ele>121</ele>
        <time>2013-06-19T12:55:20Z</time>
      </trkpt>
      <trkpt lat="49.30488" lon="-0.05732">
        <ele>119</ele>
        <time>2013-06-19T12:55:24Z</time>
      </trkpt>
      <trkpt lat="49.30495" lon="-0.05691">
        <ele>116</ele>
        <time>2013-06-19T12:55:46Z</time>
      </trkpt>
      <trkpt lat="49.30508" lon="-0.05668">
        <ele>117</ele>
        <time>2013-06-19T12:56:02Z</time>
      </trkpt>
      <trkpt lat="49.30515" lon="-0.05648">
        <ele>121</ele>
        <time>2013-06-19T12:56:14Z</time>
      </trkpt>
      <trkpt lat="49.30522" lon="-0.05622">
        <ele>127</ele>
        <time>2013-06-19T12:56:28Z</time>
      </trkpt>
      <trkpt lat="49.30524" lon="-0.05598">
        <ele>124</ele>
        <time>2013-06-19T12:56:39Z</time>
      </trkpt>
      <trkpt lat="49.30524" lon="-0.05589">
        <ele>124</ele>
        <time>2013-06-19T12:56:43Z</time>
      </trkpt>
      <trkpt lat="49.3053" lon="-0.05572">
        <ele>123</ele>
        <time>2013-06-19T12:56:53Z</time>
      </trkpt>
      <trkpt lat="49.30533" lon="-0.05569">
        <ele>123</ele>
        <time>2013-06-19T12:56:57Z</time>
      </trkpt>
      <trkpt lat="49.30541" lon="-0.05548">
        <ele>122</ele>
        <time>2013-06-19T12:57:12Z</time>
      </trkpt>
      <trkpt lat="49.30553" lon="-0.05501">
        <ele>121</ele>
        <time>2013-06-19T12:57:35Z</time>
      </trkpt>
      <trkpt lat="49.30569" lon="-0.0546">
        <ele>113</ele>
        <time>2013-06-19T12:57:54Z</time>
      </trkpt>
      <trkpt lat="49.30572" lon="-0.0546">
        <ele>113</ele>
        <time>2013-06-19T12:57:59Z</time>
      </trkpt>
      <trkpt lat="49.3058" lon="-0.0543">
        <ele>118</ele>
        <time>2013-06-19T12:58:17Z</time>
      </trkpt>
      <trkpt lat="49.30586" lon="-0.05379">
        <ele>115</ele>
        <time>2013-06-19T12:58:40Z</time>
      </trkpt>
      <trkpt lat="49.30587" lon="-0.05368">
        <ele>114</ele>
        <time>2013-06-19T12:58:45Z</time>
      </trkpt>
      <trkpt lat="49.30589" lon="-0.05364">
        <ele>114</ele>
        <time>2013-06-19T12:58:47Z</time>
      </trkpt>
      <trkpt lat="49.3059" lon="-0.0536">
        <ele>114</ele>
        <time>2013-06-19T12:58:49Z</time>
      </trkpt>
      <trkpt lat="49.30592" lon="-0.05347">
        <ele>114</ele>
        <time>2013-06-19T12:58:55Z</time>
      </trkpt>
      <trkpt lat="49.30595" lon="-0.05302">
        <ele>114</ele>
        <time>2013-06-19T12:59:16Z</time>
      </trkpt>
      <trkpt lat="49.30596" lon="-0.05292">
        <ele>113</ele>
        <time>2013-06-19T12:59:21Z</time>
      </trkpt>
      <trkpt lat="49.30598" lon="-0.05281">
        <ele>112</ele>
        <time>2013-06-19T12:59:26Z</time>
      </trkpt>
      <trkpt lat="49.306" lon="-0.05234">
        <ele>110</ele>
        <time>2013-06-19T12:59:48Z</time>
      </trkpt>
      <trkpt lat="49.30606" lon="-0.05173">
        <ele>110</ele>
        <time>2013-06-19T13:00:18Z</time>
      </trkpt>
      <trkpt lat="49.3061" lon="-0.05122">
        <ele>109</ele>
        <time>2013-06-19T13:00:42Z</time>
      </trkpt>
      <trkpt lat="49.30615" lon="-0.05077">
        <ele>116</ele>
        <time>2013-06-19T13:01:05Z</time>
      </trkpt>
      <trkpt lat="49.30619" lon="-0.05026">
        <ele>117</ele>
        <time>2013-06-19T13:01:28Z</time>
      </trkpt>
      <trkpt lat="49.3062" lon="-0.05005">
        <ele>118</ele>
        <time>2013-06-19T13:01:38Z</time>
      </trkpt>
      <trkpt lat="49.30618" lon="-0.04996">
        <ele>119</ele>
        <time>2013-06-19T13:01:42Z</time>
      </trkpt>
      <trkpt lat="49.30623" lon="-0.04951">
        <ele>125</ele>
        <time>2013-06-19T13:02:03Z</time>
      </trkpt>
      <trkpt lat="49.30622" lon="-0.04929">
        <ele>127</ele>
        <time>2013-06-19T13:02:13Z</time>
      </trkpt>
      <trkpt lat="49.30624" lon="-0.04923">
        <ele>127</ele>
        <time>2013-06-19T13:02:16Z</time>
      </trkpt>
      <trkpt lat="49.30626" lon="-0.04913">
        <ele>125</ele>
        <time>2013-06-19T13:02:21Z</time>
      </trkpt>
      <trkpt lat="49.30626" lon="-0.04902">
        <ele>126</ele>
        <time>2013-06-19T13:02:25Z</time>
      </trkpt>
      <trkpt lat="49.30625" lon="-0.0488">
        <ele>128</ele>
        <time>2013-06-19T13:02:34Z</time>
      </trkpt>
      <trkpt lat="49.30624" lon="-0.04874">
        <ele>128</ele>
        <time>2013-06-19T13:02:36Z</time>
      </trkpt>
      <trkpt lat="49.3063" lon="-0.0485">
        <ele>129</ele>
        <time>2013-06-19T13:02:46Z</time>
      </trkpt>
      <trkpt lat="49.30629" lon="-0.04846">
        <ele>130</ele>
        <time>2013-06-19T13:02:48Z</time>
      </trkpt>
      <trkpt lat="49.30628" lon="-0.04837">
        <ele>126</ele>
        <time>2013-06-19T13:02:55Z</time>
      </trkpt>
      <trkpt lat="49.3063" lon="-0.04831">
        <ele>127</ele>
        <time>2013-06-19T13:02:59Z</time>
      </trkpt>
      <trkpt lat="49.30631" lon="-0.04828">
        <ele>126</ele>
        <time>2013-06-19T13:03:01Z</time>
      </trkpt>
      <trkpt lat="49.30642" lon="-0.04765">
        <ele>120</ele>
        <time>2013-06-19T13:03:32Z</time>
      </trkpt>
      <trkpt lat="49.30645" lon="-0.04741">
        <ele>116</ele>
        <time>2013-06-19T13:03:53Z</time>
      </trkpt>
      <trkpt lat="49.30651" lon="-0.04741">
        <ele>115</ele>
        <time>2013-06-19T13:03:59Z</time>
      </trkpt>
      <trkpt lat="49.30652" lon="-0.04734">
        <ele>115</ele>
        <time>2013-06-19T13:04:04Z</time>
      </trkpt>
      <trkpt lat="49.30653" lon="-0.0473">
        <ele>115</ele>
        <time>2013-06-19T13:04:06Z</time>
      </trkpt>
      <trkpt lat="49.30666" lon="-0.04679">
        <ele>120</ele>
        <time>2013-06-19T13:04:35Z</time>
      </trkpt>
      <trkpt lat="49.30667" lon="-0.0467">
        <ele>121</ele>
        <time>2013-06-19T13:04:39Z</time>
      </trkpt>
      <trkpt lat="49.30669" lon="-0.04665">
        <ele>122</ele>
        <time>2013-06-19T13:04:42Z</time>
      </trkpt>
      <trkpt lat="49.3067" lon="-0.04652">
        <ele>125</ele>
        <time>2013-06-19T13:04:48Z</time>
      </trkpt>
      <trkpt lat="49.30674" lon="-0.04629">
        <ele>132</ele>
        <time>2013-06-19T13:05:00Z</time>
      </trkpt>
      <trkpt lat="49.3067" lon="-0.04615">
        <ele>134</ele>
        <time>2013-06-19T13:05:05Z</time>
      </trkpt>
      <trkpt lat="49.30676" lon="-0.04575">
        <ele>138</ele>
        <time>2013-06-19T13:05:25Z</time>
      </trkpt>
      <trkpt lat="49.30678" lon="-0.04546">
        <ele>135</ele>
        <time>2013-06-19T13:05:40Z</time>
      </trkpt>
      <trkpt lat="49.30686" lon="-0.04499">
        <ele>137</ele>
        <time>2013-06-19T13:06:03Z</time>
      </trkpt>
      <trkpt lat="49.30688" lon="-0.04492">
        <ele>137</ele>
        <time>2013-06-19T13:06:07Z</time>
      </trkpt>
      <trkpt lat="49.30697" lon="-0.04458">
        <ele>138</ele>
        <time>2013-06-19T13:06:26Z</time>
      </trkpt>
      <trkpt lat="49.30702" lon="-0.04444">
        <ele>138</ele>
        <time>2013-06-19T13:06:33Z</time>
      </trkpt>
      <trkpt lat="49.30715" lon="-0.04418">
        <ele>144</ele>
        <time>2013-06-19T13:06:47Z</time>
      </trkpt>
      <trkpt lat="49.30722" lon="-0.04397">
        <ele>144</ele>
        <time>2013-06-19T13:06:58Z</time>
      </trkpt>
      <trkpt lat="49.3072" lon="-0.04392">
        <ele>142</ele>
        <time>2013-06-19T13:07:00Z</time>
      </trkpt>
      <trkpt lat="49.30734" lon="-0.04355">
        <ele>138</ele>
        <time>2013-06-19T13:07:19Z</time>
      </trkpt>
      <trkpt lat="49.3075" lon="-0.04289">
        <ele>127</ele>
        <time>2013-06-19T13:07:48Z</time>
      </trkpt>
      <trkpt lat="49.30759" lon="-0.04223">
        <ele>124</ele>
        <time>2013-06-19T13:08:18Z</time>
      </trkpt>
      <trkpt lat="49.3076" lon="-0.04194">
        <ele>128</ele>
        <time>2013-06-19T13:08:32Z</time>
      </trkpt>
      <trkpt lat="49.30755" lon="-0.04173">
        <ele>132</ele>
        <time>2013-06-19T13:08:45Z</time>
      </trkpt>
      <trkpt lat="49.30756" lon="-0.04141">
        <ele>134</ele>
        <time>2013-06-19T13:09:02Z</time>
      </trkpt>
      <trkpt lat="49.30759" lon="-0.04138">
        <ele>131</ele>
        <time>2013-06-19T13:09:09Z</time>
      </trkpt>
      <trkpt lat="49.30764" lon="-0.04103">
        <ele>126</ele>
        <time>2013-06-19T13:09:33Z</time>
      </trkpt>
      <trkpt lat="49.30775" lon="-0.04058">
        <ele>124</ele>
        <time>2013-06-19T13:09:57Z</time>
      </trkpt>
      <trkpt lat="49.30784" lon="-0.04015">
        <ele>123</ele>
        <time>2013-06-19T13:10:19Z</time>
      </trkpt>
      <trkpt lat="49.30785" lon="-0.04008">
        <ele>123</ele>
        <time>2013-06-19T13:10:22Z</time>
      </trkpt>
      <trkpt lat="49.30785" lon="-0.04005">
        <ele>123</ele>
        <time>2013-06-19T13:10:24Z</time>
      </trkpt>
      <trkpt lat="49.30789" lon="-0.03973">
        <ele>124</ele>
        <time>2013-06-19T13:10:42Z</time>
      </trkpt>
      <trkpt lat="49.30789" lon="-0.03971">
        <ele>124</ele>
        <time>2013-06-19T13:10:44Z</time>
      </trkpt>
      <trkpt lat="49.30791" lon="-0.03946">
        <ele>122</ele>
        <time>2013-06-19T13:10:57Z</time>
      </trkpt>
      <trkpt lat="49.30796" lon="-0.03917">
        <ele>126</ele>
        <time>2013-06-19T13:11:11Z</time>
      </trkpt>
      <trkpt lat="49.308" lon="-0.03854">
        <ele>125</ele>
        <time>2013-06-19T13:11:44Z</time>
      </trkpt>
      <trkpt lat="49.30796" lon="-0.0381">
        <ele>124</ele>
        <time>2013-06-19T13:12:07Z</time>
      </trkpt>
      <trkpt lat="49.30797" lon="-0.0381">
        <ele>123</ele>
        <time>2013-06-19T13:12:37Z</time>
      </trkpt>
      <trkpt lat="49.30793" lon="-0.03795">
        <ele>123</ele>
        <time>2013-06-19T13:13:18Z</time>
      </trkpt>
      <trkpt lat="49.30787" lon="-0.03763">
        <ele>121</ele>
        <time>2013-06-19T13:13:37Z</time>
      </trkpt>
      <trkpt lat="49.30778" lon="-0.03729">
        <ele>123</ele>
        <time>2013-06-19T13:14:00Z</time>
      </trkpt>
      <trkpt lat="49.30774" lon="-0.03711">
        <ele>122</ele>
        <time>2013-06-19T13:14:14Z</time>
      </trkpt>
      <trkpt lat="49.30766" lon="-0.03686">
        <ele>122</ele>
        <time>2013-06-19T13:14:32Z</time>
      </trkpt>
      <trkpt lat="49.30764" lon="-0.03672">
        <ele>120</ele>
        <time>2013-06-19T13:14:49Z</time>
      </trkpt>
      <trkpt lat="49.3076" lon="-0.03666">
        <ele>120</ele>
        <time>2013-06-19T13:14:58Z</time>
      </trkpt>
      <trkpt lat="49.30757" lon="-0.03657">
        <ele>120</ele>
        <time>2013-06-19T13:15:04Z</time>
      </trkpt>
      <trkpt lat="49.30755" lon="-0.03641">
        <ele>120</ele>
        <time>2013-06-19T13:15:23Z</time>
      </trkpt>
      <trkpt lat="49.30758" lon="-0.03637">
        <ele>120</ele>
        <time>2013-06-19T13:15:48Z</time>
      </trkpt>
      <trkpt lat="49.30768" lon="-0.03637">
        <ele>120</ele>
        <time>2013-06-19T13:16:03Z</time>
      </trkpt>
      <trkpt lat="49.30773" lon="-0.03638">
        <ele>119</ele>
        <time>2013-06-19T13:16:10Z</time>
      </trkpt>
      <trkpt lat="49.30788" lon="-0.03637">
        <ele>120</ele>
        <time>2013-06-19T13:16:25Z</time>
      </trkpt>
      <trkpt lat="49.30795" lon="-0.03631">
        <ele>126</ele>
        <time>2013-06-19T13:16:40Z</time>
      </trkpt>
      <trkpt lat="49.30805" lon="-0.03612">
        <ele>134</ele>
        <time>2013-06-19T13:16:55Z</time>
      </trkpt>
      <trkpt lat="49.30807" lon="-0.03597">
        <ele>136</ele>
        <time>2013-06-19T13:17:05Z</time>
      </trkpt>
      <trkpt lat="49.30808" lon="-0.03572">
        <ele>139</ele>
        <time>2013-06-19T13:17:21Z</time>
      </trkpt>
      <trkpt lat="49.30808" lon="-0.03549">
        <ele>137</ele>
        <time>2013-06-19T13:17:35Z</time>
      </trkpt>
      <trkpt lat="49.30811" lon="-0.03522">
        <ele>133</ele>
        <time>2013-06-19T13:17:57Z</time>
      </trkpt>
      <trkpt lat="49.30813" lon="-0.03517">
        <ele>134</ele>
        <time>2013-06-19T13:18:01Z</time>
      </trkpt>
      <trkpt lat="49.30817" lon="-0.03502">
        <ele>135</ele>
        <time>2013-06-19T13:18:09Z</time>
      </trkpt>
      <trkpt lat="49.30822" lon="-0.03493">
        <ele>135</ele>
        <time>2013-06-19T13:18:15Z</time>
      </trkpt>
      <trkpt lat="49.30824" lon="-0.0349">
        <ele>136</ele>
        <time>2013-06-19T13:18:17Z</time>
      </trkpt>
      <trkpt lat="49.30824" lon="-0.03487">
        <ele>137</ele>
        <time>2013-06-19T13:18:19Z</time>
      </trkpt>
      <trkpt lat="49.30842" lon="-0.03459">
        <ele>136</ele>
        <time>2013-06-19T13:18:37Z</time>
      </trkpt>
      <trkpt lat="49.30871" lon="-0.03409">
        <ele>138</ele>
        <time>2013-06-19T13:19:06Z</time>
      </trkpt>
      <trkpt lat="49.30876" lon="-0.03395">
        <ele>135</ele>
        <time>2013-06-19T13:19:12Z</time>
      </trkpt>
      <trkpt lat="49.30886" lon="-0.03373">
        <ele>134</ele>
        <time>2013-06-19T13:19:25Z</time>
      </trkpt>
      <trkpt lat="49.30896" lon="-0.03333">
        <ele>129</ele>
        <time>2013-06-19T13:19:47Z</time>
      </trkpt>
      <trkpt lat="49.30899" lon="-0.03324">
        <ele>129</ele>
        <time>2013-06-19T13:19:53Z</time>
      </trkpt>
      <trkpt lat="49.30908" lon="-0.03311">
        <ele>129</ele>
        <time>2013-06-19T13:20:01Z</time>
      </trkpt>
      <trkpt lat="49.30909" lon="-0.03307">
        <ele>129</ele>
        <time>2013-06-19T13:20:03Z</time>
      </trkpt>
      <trkpt lat="49.30911" lon="-0.03302">
        <ele>129</ele>
        <time>2013-06-19T13:20:06Z</time>
      </trkpt>
      <trkpt lat="49.30916" lon="-0.03291">
        <ele>129</ele>
        <time>2013-06-19T13:20:12Z</time>
      </trkpt>
      <trkpt lat="49.30921" lon="-0.03287">
        <ele>127</ele>
        <time>2013-06-19T13:20:26Z</time>
      </trkpt>
      <trkpt lat="49.30922" lon="-0.0328">
        <ele>126</ele>
        <time>2013-06-19T13:20:32Z</time>
      </trkpt>
      <trkpt lat="49.30934" lon="-0.03255">
        <ele>124</ele>
        <time>2013-06-19T13:20:51Z</time>
      </trkpt>
      <trkpt lat="49.30954" lon="-0.03261">
        <ele>120</ele>
        <time>2013-06-19T13:21:08Z</time>
      </trkpt>
      <trkpt lat="49.30984" lon="-0.03284">
        <ele>119</ele>
        <time>2013-06-19T13:21:36Z</time>
      </trkpt>
      <trkpt lat="49.30997" lon="-0.03294">
        <ele>119</ele>
        <time>2013-06-19T13:21:50Z</time>
      </trkpt>
      <trkpt lat="49.31013" lon="-0.03305">
        <ele>118</ele>
        <time>2013-06-19T13:22:03Z</time>
      </trkpt>
      <trkpt lat="49.31043" lon="-0.03292">
        <ele>117</ele>
        <time>2013-06-19T13:22:28Z</time>
      </trkpt>
      <trkpt lat="49.31072" lon="-0.0327">
        <ele>116</ele>
        <time>2013-06-19T13:22:55Z</time>
      </trkpt>
      <trkpt lat="49.31073" lon="-0.0327">
        <ele>116</ele>
        <time>2013-06-19T13:23:00Z</time>
      </trkpt>
      <trkpt lat="49.31077" lon="-0.03282">
        <ele>114</ele>
        <time>2013-06-19T13:23:16Z</time>
      </trkpt>
      <trkpt lat="49.31089" lon="-0.03295">
        <ele>113</ele>
        <time>2013-06-19T13:23:29Z</time>
      </trkpt>
      <trkpt lat="49.31099" lon="-0.03305">
        <ele>113</ele>
        <time>2013-06-19T13:23:37Z</time>
      </trkpt>
      <trkpt lat="49.31114" lon="-0.03314">
        <ele>115</ele>
        <time>2013-06-19T13:23:52Z</time>
      </trkpt>
      <trkpt lat="49.31129" lon="-0.03333">
        <ele>114</ele>
        <time>2013-06-19T13:24:12Z</time>
      </trkpt>
      <trkpt lat="49.31147" lon="-0.03354">
        <ele>114</ele>
        <time>2013-06-19T13:24:27Z</time>
      </trkpt>
      <trkpt lat="49.31161" lon="-0.03375">
        <ele>111</ele>
        <time>2013-06-19T13:24:41Z</time>
      </trkpt>
      <trkpt lat="49.31175" lon="-0.03385">
        <ele>109</ele>
        <time>2013-06-19T13:24:54Z</time>
      </trkpt>
      <trkpt lat="49.31189" lon="-0.03396">
        <ele>105</ele>
        <time>2013-06-19T13:25:07Z</time>
      </trkpt>
      <trkpt lat="49.31192" lon="-0.034">
        <ele>103</ele>
        <time>2013-06-19T13:25:10Z</time>
      </trkpt>
      <trkpt lat="49.31211" lon="-0.03418">
        <ele>103</ele>
        <time>2013-06-19T13:25:27Z</time>
      </trkpt>
      <trkpt lat="49.31214" lon="-0.0342">
        <ele>102</ele>
        <time>2013-06-19T13:25:29Z</time>
      </trkpt>
      <trkpt lat="49.31231" lon="-0.03437">
        <ele>102</ele>
        <time>2013-06-19T13:25:44Z</time>
      </trkpt>
      <trkpt lat="49.31234" lon="-0.03442">
        <ele>101</ele>
        <time>2013-06-19T13:25:48Z</time>
      </trkpt>
      <trkpt lat="49.31245" lon="-0.03453">
        <ele>99</ele>
        <time>2013-06-19T13:26:00Z</time>
      </trkpt>
      <trkpt lat="49.31252" lon="-0.03464">
        <ele>98</ele>
        <time>2013-06-19T13:26:14Z</time>
      </trkpt>
      <trkpt lat="49.31262" lon="-0.03476">
        <ele>100</ele>
        <time>2013-06-19T13:26:29Z</time>
      </trkpt>
      <trkpt lat="49.31268" lon="-0.03479">
        <ele>100</ele>
        <time>2013-06-19T13:26:33Z</time>
      </trkpt>
      <trkpt lat="49.31287" lon="-0.03517">
        <ele>104</ele>
        <time>2013-06-19T13:26:54Z</time>
      </trkpt>
      <trkpt lat="49.31288" lon="-0.03535">
        <ele>109</ele>
        <time>2013-06-19T13:27:05Z</time>
      </trkpt>
      <trkpt lat="49.31295" lon="-0.03556">
        <ele>109</ele>
        <time>2013-06-19T13:27:15Z</time>
      </trkpt>
      <trkpt lat="49.31297" lon="-0.0358">
        <ele>109</ele>
        <time>2013-06-19T13:27:28Z</time>
      </trkpt>
      <trkpt lat="49.31291" lon="-0.03605">
        <ele>112</ele>
        <time>2013-06-19T13:27:44Z</time>
      </trkpt>
      <trkpt lat="49.31284" lon="-0.03616">
        <ele>112</ele>
        <time>2013-06-19T13:27:51Z</time>
      </trkpt>
      <trkpt lat="49.31282" lon="-0.03621">
        <ele>112</ele>
        <time>2013-06-19T13:27:55Z</time>
      </trkpt>
      <trkpt lat="49.3128" lon="-0.03636">
        <ele>112</ele>
        <time>2013-06-19T13:28:09Z</time>
      </trkpt>
      <trkpt lat="49.31284" lon="-0.03644">
        <ele>110</ele>
        <time>2013-06-19T13:28:29Z</time>
      </trkpt>
      <trkpt lat="49.31284" lon="-0.03642">
        <ele>109</ele>
        <time>2013-06-19T13:28:51Z</time>
      </trkpt>
      <trkpt lat="49.3128" lon="-0.03627">
        <ele>109</ele>
        <time>2013-06-19T13:29:05Z</time>
      </trkpt>
      <trkpt lat="49.31282" lon="-0.03627">
        <ele>108</ele>
        <time>2013-06-19T13:29:43Z</time>
      </trkpt>
      <trkpt lat="49.31281" lon="-0.03627">
        <ele>107</ele>
        <time>2013-06-19T13:31:25Z</time>
      </trkpt>
      <trkpt lat="49.31278" lon="-0.03625">
        <ele>103</ele>
        <time>2013-06-19T13:32:46Z</time>
      </trkpt>
      <trkpt lat="49.3128" lon="-0.03626">
        <ele>103</ele>
        <time>2013-06-19T13:36:08Z</time>
      </trkpt>
      <trkpt lat="49.31281" lon="-0.03625">
        <ele>103</ele>
        <time>2013-06-19T13:36:10Z</time>
      </trkpt>
      <trkpt lat="49.31294" lon="-0.03606">
        <ele>102</ele>
        <time>2013-06-19T13:36:28Z</time>
      </trkpt>
      <trkpt lat="49.31295" lon="-0.03602">
        <ele>101</ele>
        <time>2013-06-19T13:36:33Z</time>
      </trkpt>
      <trkpt lat="49.31297" lon="-0.03587">
        <ele>101</ele>
        <time>2013-06-19T13:36:40Z</time>
      </trkpt>
      <trkpt lat="49.31296" lon="-0.03585">
        <ele>100</ele>
        <time>2013-06-19T13:36:42Z</time>
      </trkpt>
      <trkpt lat="49.31297" lon="-0.03582">
        <ele>100</ele>
        <time>2013-06-19T13:36:44Z</time>
      </trkpt>
      <trkpt lat="49.31295" lon="-0.0357">
        <ele>100</ele>
        <time>2013-06-19T13:36:51Z</time>
      </trkpt>
      <trkpt lat="49.31294" lon="-0.03564">
        <ele>101</ele>
        <time>2013-06-19T13:36:55Z</time>
      </trkpt>
      <trkpt lat="49.31296" lon="-0.03541">
        <ele>102</ele>
        <time>2013-06-19T13:37:14Z</time>
      </trkpt>
      <trkpt lat="49.31293" lon="-0.0351">
        <ele>100</ele>
        <time>2013-06-19T13:37:35Z</time>
      </trkpt>
      <trkpt lat="49.31273" lon="-0.03485">
        <ele>101</ele>
        <time>2013-06-19T13:37:54Z</time>
      </trkpt>
      <trkpt lat="49.31256" lon="-0.03467">
        <ele>103</ele>
        <time>2013-06-19T13:38:12Z</time>
      </trkpt>
      <trkpt lat="49.3125" lon="-0.03455">
        <ele>103</ele>
        <time>2013-06-19T13:38:17Z</time>
      </trkpt>
      <trkpt lat="49.31234" lon="-0.0343">
        <ele>106</ele>
        <time>2013-06-19T13:38:36Z</time>
      </trkpt>
      <trkpt lat="49.31231" lon="-0.03427">
        <ele>107</ele>
        <time>2013-06-19T13:38:39Z</time>
      </trkpt>
      <trkpt lat="49.31227" lon="-0.03419">
        <ele>109</ele>
        <time>2013-06-19T13:38:46Z</time>
      </trkpt>
      <trkpt lat="49.31214" lon="-0.03405">
        <ele>109</ele>
        <time>2013-06-19T13:38:57Z</time>
      </trkpt>
      <trkpt lat="49.31198" lon="-0.03392">
        <ele>110</ele>
        <time>2013-06-19T13:39:12Z</time>
      </trkpt>
      <trkpt lat="49.31181" lon="-0.03387">
        <ele>114</ele>
        <time>2013-06-19T13:39:28Z</time>
      </trkpt>
      <trkpt lat="49.31176" lon="-0.03381">
        <ele>114</ele>
        <time>2013-06-19T13:39:32Z</time>
      </trkpt>
      <trkpt lat="49.31156" lon="-0.03365">
        <ele>111</ele>
        <time>2013-06-19T13:39:46Z</time>
      </trkpt>
      <trkpt lat="49.31152" lon="-0.0336">
        <ele>112</ele>
        <time>2013-06-19T13:39:52Z</time>
      </trkpt>
      <trkpt lat="49.31149" lon="-0.0335">
        <ele>113</ele>
        <time>2013-06-19T13:40:11Z</time>
      </trkpt>
      <trkpt lat="49.31145" lon="-0.0335">
        <ele>115</ele>
        <time>2013-06-19T13:41:24Z</time>
      </trkpt>
      <trkpt lat="49.31145" lon="-0.0335">
        <ele>117</ele>
        <time>2013-06-19T13:41:55Z</time>
      </trkpt>
      <trkpt lat="49.31131" lon="-0.0333">
        <ele>117</ele>
        <time>2013-06-19T13:42:13Z</time>
      </trkpt>
      <trkpt lat="49.31108" lon="-0.03316">
        <ele>118</ele>
        <time>2013-06-19T13:42:31Z</time>
      </trkpt>
      <trkpt lat="49.31103" lon="-0.03301">
        <ele>122</ele>
        <time>2013-06-19T13:42:41Z</time>
      </trkpt>
      <trkpt lat="49.31093" lon="-0.03296">
        <ele>124</ele>
        <time>2013-06-19T13:42:49Z</time>
      </trkpt>
      <trkpt lat="49.31085" lon="-0.03279">
        <ele>126</ele>
        <time>2013-06-19T13:42:59Z</time>
      </trkpt>
      <trkpt lat="49.31082" lon="-0.03269">
        <ele>126</ele>
        <time>2013-06-19T13:43:04Z</time>
      </trkpt>
      <trkpt lat="49.31106" lon="-0.03235">
        <ele>122</ele>
        <time>2013-06-19T13:43:27Z</time>
      </trkpt>
      <trkpt lat="49.31128" lon="-0.03209">
        <ele>118</ele>
        <time>2013-06-19T13:43:47Z</time>
      </trkpt>
      <trkpt lat="49.31144" lon="-0.03188">
        <ele>115</ele>
        <time>2013-06-19T13:44:04Z</time>
      </trkpt>
      <trkpt lat="49.31169" lon="-0.03157">
        <ele>113</ele>
        <time>2013-06-19T13:44:26Z</time>
      </trkpt>
      <trkpt lat="49.31199" lon="-0.03127">
        <ele>112</ele>
        <time>2013-06-19T13:44:51Z</time>
      </trkpt>
      <trkpt lat="49.31233" lon="-0.03106">
        <ele>111</ele>
        <time>2013-06-19T13:45:17Z</time>
      </trkpt>
      <trkpt lat="49.31252" lon="-0.03116">
        <ele>113</ele>
        <time>2013-06-19T13:45:33Z</time>
      </trkpt>
      <trkpt lat="49.31276" lon="-0.03132">
        <ele>115</ele>
        <time>2013-06-19T13:45:55Z</time>
      </trkpt>
      <trkpt lat="49.31276" lon="-0.03139">
        <ele>114</ele>
        <time>2013-06-19T13:45:59Z</time>
      </trkpt>
      <trkpt lat="49.31276" lon="-0.03145">
        <ele>115</ele>
        <time>2013-06-19T13:46:02Z</time>
      </trkpt>
      <trkpt lat="49.31276" lon="-0.03153">
        <ele>115</ele>
        <time>2013-06-19T13:46:06Z</time>
      </trkpt>
      <trkpt lat="49.31277" lon="-0.03161">
        <ele>114</ele>
        <time>2013-06-19T13:46:13Z</time>
      </trkpt>
      <trkpt lat="49.31278" lon="-0.03164">
        <ele>115</ele>
        <time>2013-06-19T13:46:15Z</time>
      </trkpt>
      <trkpt lat="49.31281" lon="-0.03176">
        <ele>115</ele>
        <time>2013-06-19T13:46:26Z</time>
      </trkpt>
      <trkpt lat="49.31281" lon="-0.03206">
        <ele>116</ele>
        <time>2013-06-19T13:46:47Z</time>
      </trkpt>
      <trkpt lat="49.31291" lon="-0.03217">
        <ele>114</ele>
        <time>2013-06-19T13:47:03Z</time>
      </trkpt>
      <trkpt lat="49.31293" lon="-0.03213">
        <ele>113</ele>
        <time>2013-06-19T13:47:19Z</time>
      </trkpt>
      <trkpt lat="49.31294" lon="-0.03215">
        <ele>113</ele>
        <time>2013-06-19T13:47:33Z</time>
      </trkpt>
      <trkpt lat="49.313" lon="-0.03205">
        <ele>114</ele>
        <time>2013-06-19T13:47:50Z</time>
      </trkpt>
      <trkpt lat="49.31301" lon="-0.03186">
        <ele>113</ele>
        <time>2013-06-19T13:48:05Z</time>
      </trkpt>
      <trkpt lat="49.313" lon="-0.03177">
        <ele>113</ele>
        <time>2013-06-19T13:48:13Z</time>
      </trkpt>
      <trkpt lat="49.31285" lon="-0.03165">
        <ele>114</ele>
        <time>2013-06-19T13:48:34Z</time>
      </trkpt>
      <trkpt lat="49.31283" lon="-0.03165">
        <ele>114</ele>
        <time>2013-06-19T13:48:51Z</time>
      </trkpt>
      <trkpt lat="49.31283" lon="-0.03165">
        <ele>114</ele>
        <time>2013-06-19T13:49:22Z</time>
      </trkpt>
      <trkpt lat="49.31283" lon="-0.03165">
        <ele>114</ele>
        <time>2013-06-19T13:49:44Z</time>
      </trkpt>
      <trkpt lat="49.31282" lon="-0.03175">
        <ele>115</ele>
        <time>2013-06-19T13:50:04Z</time>
      </trkpt>
      <trkpt lat="49.31283" lon="-0.03178">
        <ele>115</ele>
        <time>2013-06-19T13:50:29Z</time>
      </trkpt>
      <trkpt lat="49.31281" lon="-0.03176">
        <ele>115</ele>
        <time>2013-06-19T13:51:12Z</time>
      </trkpt>
      <trkpt lat="49.31276" lon="-0.03161">
        <ele>115</ele>
        <time>2013-06-19T13:51:23Z</time>
      </trkpt>
      <trkpt lat="49.3127" lon="-0.03134">
        <ele>115</ele>
        <time>2013-06-19T13:51:42Z</time>
      </trkpt>
      <trkpt lat="49.31266" lon="-0.0312">
        <ele>116</ele>
        <time>2013-06-19T13:51:51Z</time>
      </trkpt>
      <trkpt lat="49.31267" lon="-0.03111">
        <ele>115</ele>
        <time>2013-06-19T13:51:56Z</time>
      </trkpt>
      <trkpt lat="49.31277" lon="-0.03073">
        <ele>113</ele>
        <time>2013-06-19T13:52:18Z</time>
      </trkpt>
      <trkpt lat="49.31278" lon="-0.03069">
        <ele>113</ele>
        <time>2013-06-19T13:52:20Z</time>
      </trkpt>
      <trkpt lat="49.31281" lon="-0.03049">
        <ele>114</ele>
        <time>2013-06-19T13:52:35Z</time>
      </trkpt>
      <trkpt lat="49.31283" lon="-0.0304">
        <ele>113</ele>
        <time>2013-06-19T13:52:39Z</time>
      </trkpt>
      <trkpt lat="49.31286" lon="-0.03011">
        <ele>115</ele>
        <time>2013-06-19T13:52:52Z</time>
      </trkpt>
      <trkpt lat="49.31286" lon="-0.03009">
        <ele>115</ele>
        <time>2013-06-19T13:52:54Z</time>
      </trkpt>
      <trkpt lat="49.31285" lon="-0.03004">
        <ele>115</ele>
        <time>2013-06-19T13:52:56Z</time>
      </trkpt>
      <trkpt lat="49.31288" lon="-0.02992">
        <ele>116</ele>
        <time>2013-06-19T13:53:03Z</time>
      </trkpt>
      <trkpt lat="49.31285" lon="-0.02955">
        <ele>116</ele>
        <time>2013-06-19T13:53:21Z</time>
      </trkpt>
      <trkpt lat="49.31284" lon="-0.02953">
        <ele>116</ele>
        <time>2013-06-19T13:53:22Z</time>
      </trkpt>
      <trkpt lat="49.31278" lon="-0.02925">
        <ele>115</ele>
        <time>2013-06-19T13:53:35Z</time>
      </trkpt>
      <trkpt lat="49.31278" lon="-0.02915">
        <ele>116</ele>
        <time>2013-06-19T13:53:39Z</time>
      </trkpt>
      <trkpt lat="49.31279" lon="-0.02908">
        <ele>117</ele>
        <time>2013-06-19T13:53:41Z</time>
      </trkpt>
      <trkpt lat="49.31275" lon="-0.02873">
        <ele>113</ele>
        <time>2013-06-19T13:53:57Z</time>
      </trkpt>
      <trkpt lat="49.31274" lon="-0.02848">
        <ele>112</ele>
        <time>2013-06-19T13:54:09Z</time>
      </trkpt>
      <trkpt lat="49.31277" lon="-0.02824">
        <ele>112</ele>
        <time>2013-06-19T13:54:23Z</time>
      </trkpt>
      <trkpt lat="49.31282" lon="-0.02812">
        <ele>114</ele>
        <time>2013-06-19T13:54:27Z</time>
      </trkpt>
      <trkpt lat="49.31288" lon="-0.02781">
        <ele>114</ele>
        <time>2013-06-19T13:54:41Z</time>
      </trkpt>
      <trkpt lat="49.31296" lon="-0.02747">
        <ele>115</ele>
        <time>2013-06-19T13:54:53Z</time>
      </trkpt>
      <trkpt lat="49.31305" lon="-0.02725">
        <ele>111</ele>
        <time>2013-06-19T13:55:04Z</time>
      </trkpt>
      <trkpt lat="49.31316" lon="-0.027">
        <ele>111</ele>
        <time>2013-06-19T13:55:20Z</time>
      </trkpt>
      <trkpt lat="49.3132" lon="-0.0268">
        <ele>112</ele>
        <time>2013-06-19T13:55:30Z</time>
      </trkpt>
      <trkpt lat="49.31328" lon="-0.02656">
        <ele>111</ele>
        <time>2013-06-19T13:55:43Z</time>
      </trkpt>
      <trkpt lat="49.31335" lon="-0.02636">
        <ele>112</ele>
        <time>2013-06-19T13:55:52Z</time>
      </trkpt>
      <trkpt lat="49.31349" lon="-0.02621">
        <ele>119</ele>
        <time>2013-06-19T13:56:06Z</time>
      </trkpt>
      <trkpt lat="49.31364" lon="-0.02595">
        <ele>122</ele>
        <time>2013-06-19T13:56:22Z</time>
      </trkpt>
      <trkpt lat="49.3137" lon="-0.02589">
        <ele>121</ele>
        <time>2013-06-19T13:56:26Z</time>
      </trkpt>
      <trkpt lat="49.3138" lon="-0.02565">
        <ele>124</ele>
        <time>2013-06-19T13:56:39Z</time>
      </trkpt>
      <trkpt lat="49.31393" lon="-0.02537">
        <ele>128</ele>
        <time>2013-06-19T13:56:57Z</time>
      </trkpt>
      <trkpt lat="49.31394" lon="-0.02535">
        <ele>128</ele>
        <time>2013-06-19T13:56:58Z</time>
      </trkpt>
      <trkpt lat="49.31408" lon="-0.02515">
        <ele>129</ele>
        <time>2013-06-19T13:57:13Z</time>
      </trkpt>
      <trkpt lat="49.31422" lon="-0.02483">
        <ele>129</ele>
        <time>2013-06-19T13:57:32Z</time>
      </trkpt>
      <trkpt lat="49.31431" lon="-0.02439">
        <ele>128</ele>
        <time>2013-06-19T13:57:50Z</time>
      </trkpt>
      <trkpt lat="49.31437" lon="-0.02422">
        <ele>129</ele>
        <time>2013-06-19T13:58:00Z</time>
      </trkpt>
      <trkpt lat="49.31447" lon="-0.02388">
        <ele>131</ele>
        <time>2013-06-19T13:58:16Z</time>
      </trkpt>
      <trkpt lat="49.31452" lon="-0.02372">
        <ele>133</ele>
        <time>2013-06-19T13:58:24Z</time>
      </trkpt>
      <trkpt lat="49.31454" lon="-0.02367">
        <ele>133</ele>
        <time>2013-06-19T13:58:27Z</time>
      </trkpt>
      <trkpt lat="49.31455" lon="-0.02363">
        <ele>133</ele>
        <time>2013-06-19T13:58:29Z</time>
      </trkpt>
      <trkpt lat="49.31469" lon="-0.02325">
        <ele>132</ele>
        <time>2013-06-19T13:58:45Z</time>
      </trkpt>
      <trkpt lat="49.31472" lon="-0.02307">
        <ele>132</ele>
        <time>2013-06-19T13:58:55Z</time>
      </trkpt>
      <trkpt lat="49.31475" lon="-0.02297">
        <ele>131</ele>
        <time>2013-06-19T13:59:00Z</time>
      </trkpt>
      <trkpt lat="49.31478" lon="-0.02276">
        <ele>130</ele>
        <time>2013-06-19T13:59:10Z</time>
      </trkpt>
      <trkpt lat="49.31483" lon="-0.02253">
        <ele>124</ele>
        <time>2013-06-19T13:59:24Z</time>
      </trkpt>
      <trkpt lat="49.31482" lon="-0.02238">
        <ele>120</ele>
        <time>2013-06-19T13:59:55Z</time>
      </trkpt>
      <trkpt lat="49.31481" lon="-0.02233">
        <ele>121</ele>
        <time>2013-06-19T13:59:58Z</time>
      </trkpt>
      <trkpt lat="49.31481" lon="-0.02206">
        <ele>116</ele>
        <time>2013-06-19T14:00:14Z</time>
      </trkpt>
      <trkpt lat="49.31484" lon="-0.022">
        <ele>114</ele>
        <time>2013-06-19T14:00:30Z</time>
      </trkpt>
      <trkpt lat="49.31485" lon="-0.02199">
        <ele>114</ele>
        <time>2013-06-19T14:00:32Z</time>
      </trkpt>
      <trkpt lat="49.31504" lon="-0.02187">
        <ele>113</ele>
        <time>2013-06-19T14:00:53Z</time>
      </trkpt>
      <trkpt lat="49.31517" lon="-0.02162">
        <ele>110</ele>
        <time>2013-06-19T14:01:11Z</time>
      </trkpt>
      <trkpt lat="49.31523" lon="-0.02156">
        <ele>111</ele>
        <time>2013-06-19T14:01:17Z</time>
      </trkpt>
      <trkpt lat="49.31538" lon="-0.02128">
        <ele>108</ele>
        <time>2013-06-19T14:01:37Z</time>
      </trkpt>
      <trkpt lat="49.31546" lon="-0.02115">
        <ele>107</ele>
        <time>2013-06-19T14:01:44Z</time>
      </trkpt>
      <trkpt lat="49.31549" lon="-0.02107">
        <ele>107</ele>
        <time>2013-06-19T14:01:51Z</time>
      </trkpt>
      <trkpt lat="49.3156" lon="-0.02072">
        <ele>102</ele>
        <time>2013-06-19T14:02:13Z</time>
      </trkpt>
      <trkpt lat="49.31576" lon="-0.02011">
        <ele>98</ele>
        <time>2013-06-19T14:02:45Z</time>
      </trkpt>
      <trkpt lat="49.31591" lon="-0.01977">
        <ele>94</ele>
        <time>2013-06-19T14:03:11Z</time>
      </trkpt>
      <trkpt lat="49.31609" lon="-0.01941">
        <ele>92</ele>
        <time>2013-06-19T14:03:41Z</time>
      </trkpt>
      <trkpt lat="49.31631" lon="-0.01909">
        <ele>91</ele>
        <time>2013-06-19T14:04:06Z</time>
      </trkpt>
      <trkpt lat="49.31653" lon="-0.0189">
        <ele>92</ele>
        <time>2013-06-19T14:04:33Z</time>
      </trkpt>
      <trkpt lat="49.31665" lon="-0.01883">
        <ele>93</ele>
        <time>2013-06-19T14:04:43Z</time>
      </trkpt>
      <trkpt lat="49.31681" lon="-0.01879">
        <ele>93</ele>
        <time>2013-06-19T14:04:56Z</time>
      </trkpt>
      <trkpt lat="49.317" lon="-0.01878">
        <ele>91</ele>
        <time>2013-06-19T14:05:11Z</time>
      </trkpt>
      <trkpt lat="49.31705" lon="-0.01879">
        <ele>91</ele>
        <time>2013-06-19T14:05:15Z</time>
      </trkpt>
      <trkpt lat="49.31722" lon="-0.01883">
        <ele>91</ele>
        <time>2013-06-19T14:05:31Z</time>
      </trkpt>
      <trkpt lat="49.31737" lon="-0.01884">
        <ele>89</ele>
        <time>2013-06-19T14:05:48Z</time>
      </trkpt>
      <trkpt lat="49.31763" lon="-0.01845">
        <ele>88</ele>
        <time>2013-06-19T14:06:21Z</time>
      </trkpt>
      <trkpt lat="49.31784" lon="-0.01826">
        <ele>85</ele>
        <time>2013-06-19T14:06:46Z</time>
      </trkpt>
      <trkpt lat="49.31791" lon="-0.0185">
        <ele>85</ele>
        <time>2013-06-19T14:07:03Z</time>
      </trkpt>
      <trkpt lat="49.318" lon="-0.01858">
        <ele>82</ele>
        <time>2013-06-19T14:07:11Z</time>
      </trkpt>
      <trkpt lat="49.31819" lon="-0.01868">
        <ele>74</ele>
        <time>2013-06-19T14:07:28Z</time>
      </trkpt>
      <trkpt lat="49.31833" lon="-0.01871">
        <ele>71</ele>
        <time>2013-06-19T14:07:40Z</time>
      </trkpt>
      <trkpt lat="49.31836" lon="-0.01874">
        <ele>68</ele>
        <time>2013-06-19T14:07:46Z</time>
      </trkpt>
      <trkpt lat="49.31851" lon="-0.01884">
        <ele>66</ele>
        <time>2013-06-19T14:08:06Z</time>
      </trkpt>
      <trkpt lat="49.31855" lon="-0.0189">
        <ele>64</ele>
        <time>2013-06-19T14:08:22Z</time>
      </trkpt>
      <trkpt lat="49.31857" lon="-0.01896">
        <ele>63</ele>
        <time>2013-06-19T14:08:42Z</time>
      </trkpt>
      <trkpt lat="49.31856" lon="-0.01896">
        <ele>63</ele>
        <time>2013-06-19T14:09:05Z</time>
      </trkpt>
      <trkpt lat="49.31856" lon="-0.01897">
        <ele>62</ele>
        <time>2013-06-19T14:10:13Z</time>
      </trkpt>
      <trkpt lat="49.31857" lon="-0.01895">
        <ele>61</ele>
        <time>2013-06-19T14:10:32Z</time>
      </trkpt>
      <trkpt lat="49.31855" lon="-0.01893">
        <ele>60</ele>
        <time>2013-06-19T14:10:37Z</time>
      </trkpt>
      <trkpt lat="49.31845" lon="-0.01882">
        <ele>60</ele>
        <time>2013-06-19T14:10:50Z</time>
      </trkpt>
      <trkpt lat="49.31828" lon="-0.01876">
        <ele>61</ele>
        <time>2013-06-19T14:11:13Z</time>
      </trkpt>
      <trkpt lat="49.3181" lon="-0.01881">
        <ele>61</ele>
        <time>2013-06-19T14:11:34Z</time>
      </trkpt>
      <trkpt lat="49.31808" lon="-0.01881">
        <ele>61</ele>
        <time>2013-06-19T14:11:37Z</time>
      </trkpt>
      <trkpt lat="49.3179" lon="-0.01875">
        <ele>62</ele>
        <time>2013-06-19T14:11:54Z</time>
      </trkpt>
      <trkpt lat="49.31789" lon="-0.01873">
        <ele>63</ele>
        <time>2013-06-19T14:11:58Z</time>
      </trkpt>
      <trkpt lat="49.31786" lon="-0.01873">
        <ele>63</ele>
        <time>2013-06-19T14:12:00Z</time>
      </trkpt>
      <trkpt lat="49.31784" lon="-0.0187">
        <ele>64</ele>
        <time>2013-06-19T14:12:04Z</time>
      </trkpt>
      <trkpt lat="49.31781" lon="-0.01847">
        <ele>64</ele>
        <time>2013-06-19T14:12:19Z</time>
      </trkpt>
      <trkpt lat="49.3178" lon="-0.01825">
        <ele>66</ele>
        <time>2013-06-19T14:12:39Z</time>
      </trkpt>
      <trkpt lat="49.31787" lon="-0.01804">
        <ele>66</ele>
        <time>2013-06-19T14:12:52Z</time>
      </trkpt>
      <trkpt lat="49.31788" lon="-0.01801">
        <ele>66</ele>
        <time>2013-06-19T14:12:54Z</time>
      </trkpt>
      <trkpt lat="49.31794" lon="-0.01797">
        <ele>67</ele>
        <time>2013-06-19T14:12:58Z</time>
      </trkpt>
      <trkpt lat="49.31796" lon="-0.01785">
        <ele>68</ele>
        <time>2013-06-19T14:13:04Z</time>
      </trkpt>
      <trkpt lat="49.31805" lon="-0.0176">
        <ele>69</ele>
        <time>2013-06-19T14:13:16Z</time>
      </trkpt>
      <trkpt lat="49.31806" lon="-0.01752">
        <ele>69</ele>
        <time>2013-06-19T14:13:38Z</time>
      </trkpt>
      <trkpt lat="49.31809" lon="-0.01746">
        <ele>70</ele>
        <time>2013-06-19T14:13:47Z</time>
      </trkpt>
      <trkpt lat="49.31811" lon="-0.01715">
        <ele>69</ele>
        <time>2013-06-19T14:14:04Z</time>
      </trkpt>
      <trkpt lat="49.31813" lon="-0.01712">
        <ele>69</ele>
        <time>2013-06-19T14:14:06Z</time>
      </trkpt>
      <trkpt lat="49.31822" lon="-0.01691">
        <ele>70</ele>
        <time>2013-06-19T14:14:19Z</time>
      </trkpt>
      <trkpt lat="49.31824" lon="-0.0169">
        <ele>70</ele>
        <time>2013-06-19T14:14:21Z</time>
      </trkpt>
      <trkpt lat="49.31829" lon="-0.01669">
        <ele>72</ele>
        <time>2013-06-19T14:14:31Z</time>
      </trkpt>
      <trkpt lat="49.3183" lon="-0.01664">
        <ele>73</ele>
        <time>2013-06-19T14:14:34Z</time>
      </trkpt>
      <trkpt lat="49.31832" lon="-0.01658">
        <ele>74</ele>
        <time>2013-06-19T14:14:39Z</time>
      </trkpt>
      <trkpt lat="49.31833" lon="-0.0164">
        <ele>78</ele>
        <time>2013-06-19T14:14:52Z</time>
      </trkpt>
      <trkpt lat="49.31833" lon="-0.01638">
        <ele>78</ele>
        <time>2013-06-19T14:14:53Z</time>
      </trkpt>
      <trkpt lat="49.31839" lon="-0.01631">
        <ele>82</ele>
        <time>2013-06-19T14:15:01Z</time>
      </trkpt>
      <trkpt lat="49.31846" lon="-0.01611">
        <ele>88</ele>
        <time>2013-06-19T14:15:16Z</time>
      </trkpt>
      <trkpt lat="49.31853" lon="-0.01576">
        <ele>93</ele>
        <time>2013-06-19T14:15:41Z</time>
      </trkpt>
      <trkpt lat="49.31865" lon="-0.01543">
        <ele>94</ele>
        <time>2013-06-19T14:16:03Z</time>
      </trkpt>
      <trkpt lat="49.31875" lon="-0.01508">
        <ele>97</ele>
        <time>2013-06-19T14:16:28Z</time>
      </trkpt>
      <trkpt lat="49.31887" lon="-0.01474">
        <ele>97</ele>
        <time>2013-06-19T14:16:54Z</time>
      </trkpt>
      <trkpt lat="49.31892" lon="-0.0143">
        <ele>91</ele>
        <time>2013-06-19T14:17:18Z</time>
      </trkpt>
      <trkpt lat="49.31901" lon="-0.01415">
        <ele>90</ele>
        <time>2013-06-19T14:17:35Z</time>
      </trkpt>
      <trkpt lat="49.31902" lon="-0.01406">
        <ele>88</ele>
        <time>2013-06-19T14:17:49Z</time>
      </trkpt>
      <trkpt lat="49.31903" lon="-0.01402">
        <ele>87</ele>
        <time>2013-06-19T14:17:53Z</time>
      </trkpt>
      <trkpt lat="49.31909" lon="-0.01398">
        <ele>85</ele>
        <time>2013-06-19T14:18:00Z</time>
      </trkpt>
      <trkpt lat="49.31923" lon="-0.01392">
        <ele>82</ele>
        <time>2013-06-19T14:18:12Z</time>
      </trkpt>
      <trkpt lat="49.31927" lon="-0.01389">
        <ele>81</ele>
        <time>2013-06-19T14:18:16Z</time>
      </trkpt>
      <trkpt lat="49.31941" lon="-0.01376">
        <ele>83</ele>
        <time>2013-06-19T14:18:30Z</time>
      </trkpt>
      <trkpt lat="49.31949" lon="-0.01367">
        <ele>79</ele>
        <time>2013-06-19T14:18:37Z</time>
      </trkpt>
      <trkpt lat="49.3195" lon="-0.01364">
        <ele>79</ele>
        <time>2013-06-19T14:18:39Z</time>
      </trkpt>
      <trkpt lat="49.31961" lon="-0.0134">
        <ele>71</ele>
        <time>2013-06-19T14:18:53Z</time>
      </trkpt>
      <trkpt lat="49.31964" lon="-0.01335">
        <ele>69</ele>
        <time>2013-06-19T14:18:56Z</time>
      </trkpt>
      <trkpt lat="49.31969" lon="-0.0133">
        <ele>63</ele>
        <time>2013-06-19T14:19:13Z</time>
      </trkpt>
      <trkpt lat="49.31968" lon="-0.01328">
        <ele>57</ele>
        <time>2013-06-19T14:19:28Z</time>
      </trkpt>
      <trkpt lat="49.31958" lon="-0.01349">
        <ele>57</ele>
        <time>2013-06-19T14:19:45Z</time>
      </trkpt>
      <trkpt lat="49.31953" lon="-0.01358">
        <ele>56</ele>
        <time>2013-06-19T14:20:00Z</time>
      </trkpt>
      <trkpt lat="49.31947" lon="-0.01367">
        <ele>57</ele>
        <time>2013-06-19T14:20:13Z</time>
      </trkpt>
      <trkpt lat="49.31944" lon="-0.01372">
        <ele>58</ele>
        <time>2013-06-19T14:20:25Z</time>
      </trkpt>
      <trkpt lat="49.31938" lon="-0.01382">
        <ele>57</ele>
        <time>2013-06-19T14:20:38Z</time>
      </trkpt>
      <trkpt lat="49.31933" lon="-0.01387">
        <ele>56</ele>
        <time>2013-06-19T14:20:50Z</time>
      </trkpt>
      <trkpt lat="49.31931" lon="-0.01388">
        <ele>55</ele>
        <time>2013-06-19T14:21:08Z</time>
      </trkpt>
      <trkpt lat="49.31928" lon="-0.01395">
        <ele>55</ele>
        <time>2013-06-19T14:21:13Z</time>
      </trkpt>
      <trkpt lat="49.31931" lon="-0.01396">
        <ele>55</ele>
        <time>2013-06-19T14:21:35Z</time>
      </trkpt>
      <trkpt lat="49.31929" lon="-0.01395">
        <ele>53</ele>
        <time>2013-06-19T14:21:48Z</time>
      </trkpt>
      <trkpt lat="49.31919" lon="-0.01393">
        <ele>50</ele>
        <time>2013-06-19T14:21:59Z</time>
      </trkpt>
      <trkpt lat="49.31906" lon="-0.01384">
        <ele>52</ele>
        <time>2013-06-19T14:22:16Z</time>
      </trkpt>
      <trkpt lat="49.31902" lon="-0.01383">
        <ele>52</ele>
        <time>2013-06-19T14:22:21Z</time>
      </trkpt>
      <trkpt lat="49.31893" lon="-0.01377">
        <ele>51</ele>
        <time>2013-06-19T14:22:35Z</time>
      </trkpt>
      <trkpt lat="49.31881" lon="-0.01368">
        <ele>55</ele>
        <time>2013-06-19T14:22:52Z</time>
      </trkpt>
      <trkpt lat="49.31869" lon="-0.0136">
        <ele>59</ele>
        <time>2013-06-19T14:23:08Z</time>
      </trkpt>
      <trkpt lat="49.31856" lon="-0.01348">
        <ele>65</ele>
        <time>2013-06-19T14:23:25Z</time>
      </trkpt>
      <trkpt lat="49.31844" lon="-0.01339">
        <ele>70</ele>
        <time>2013-06-19T14:23:42Z</time>
      </trkpt>
      <trkpt lat="49.31836" lon="-0.01331">
        <ele>75</ele>
        <time>2013-06-19T14:23:54Z</time>
      </trkpt>
      <trkpt lat="49.31828" lon="-0.01307">
        <ele>76</ele>
        <time>2013-06-19T14:24:09Z</time>
      </trkpt>
      <trkpt lat="49.31831" lon="-0.01281">
        <ele>75</ele>
        <time>2013-06-19T14:24:25Z</time>
      </trkpt>
      <trkpt lat="49.31832" lon="-0.01286">
        <ele>74</ele>
        <time>2013-06-19T14:24:29Z</time>
      </trkpt>
      <trkpt lat="49.31832" lon="-0.01299">
        <ele>73</ele>
        <time>2013-06-19T14:24:37Z</time>
      </trkpt>
      <trkpt lat="49.3182" lon="-0.01319">
        <ele>73</ele>
        <time>2013-06-19T14:24:51Z</time>
      </trkpt>
      <trkpt lat="49.31794" lon="-0.01343">
        <ele>75</ele>
        <time>2013-06-19T14:25:11Z</time>
      </trkpt>
      <trkpt lat="49.3177" lon="-0.01354">
        <ele>76</ele>
        <time>2013-06-19T14:25:31Z</time>
      </trkpt>
      <trkpt lat="49.31757" lon="-0.01363">
        <ele>77</ele>
        <time>2013-06-19T14:25:43Z</time>
      </trkpt>
      <trkpt lat="49.31736" lon="-0.01361">
        <ele>78</ele>
        <time>2013-06-19T14:25:57Z</time>
      </trkpt>
      <trkpt lat="49.3173" lon="-0.01354">
        <ele>80</ele>
        <time>2013-06-19T14:26:01Z</time>
      </trkpt>
      <trkpt lat="49.31735" lon="-0.01341">
        <ele>85</ele>
        <time>2013-06-19T14:26:10Z</time>
      </trkpt>
      <trkpt lat="49.3174" lon="-0.01335">
        <ele>90</ele>
        <time>2013-06-19T14:26:16Z</time>
      </trkpt>
      <trkpt lat="49.31749" lon="-0.01328">
        <ele>95</ele>
        <time>2013-06-19T14:26:26Z</time>
      </trkpt>
      <trkpt lat="49.31756" lon="-0.0129">
        <ele>96</ele>
        <time>2013-06-19T14:26:45Z</time>
      </trkpt>
      <trkpt lat="49.31756" lon="-0.01286">
        <ele>96</ele>
        <time>2013-06-19T14:26:47Z</time>
      </trkpt>
      <trkpt lat="49.31769" lon="-0.01268">
        <ele>101</ele>
        <time>2013-06-19T14:27:03Z</time>
      </trkpt>
      <trkpt lat="49.31774" lon="-0.01255">
        <ele>102</ele>
        <time>2013-06-19T14:27:09Z</time>
      </trkpt>
      <trkpt lat="49.3178" lon="-0.01239">
        <ele>103</ele>
        <time>2013-06-19T14:27:17Z</time>
      </trkpt>
      <trkpt lat="49.31786" lon="-0.01223">
        <ele>105</ele>
        <time>2013-06-19T14:27:26Z</time>
      </trkpt>
      <trkpt lat="49.31788" lon="-0.01214">
        <ele>106</ele>
        <time>2013-06-19T14:27:30Z</time>
      </trkpt>
      <trkpt lat="49.3179" lon="-0.01207">
        <ele>107</ele>
        <time>2013-06-19T14:27:34Z</time>
      </trkpt>
      <trkpt lat="49.31794" lon="-0.01191">
        <ele>108</ele>
        <time>2013-06-19T14:27:45Z</time>
      </trkpt>
      <trkpt lat="49.31807" lon="-0.01158">
        <ele>106</ele>
        <time>2013-06-19T14:28:06Z</time>
      </trkpt>
      <trkpt lat="49.31812" lon="-0.0112">
        <ele>104</ele>
        <time>2013-06-19T14:28:23Z</time>
      </trkpt>
      <trkpt lat="49.31818" lon="-0.01094">
        <ele>102</ele>
        <time>2013-06-19T14:28:36Z</time>
      </trkpt>
      <trkpt lat="49.3183" lon="-0.0108">
        <ele>97</ele>
        <time>2013-06-19T14:28:48Z</time>
      </trkpt>
      <trkpt lat="49.31831" lon="-0.01076">
        <ele>97</ele>
        <time>2013-06-19T14:28:51Z</time>
      </trkpt>
      <trkpt lat="49.31837" lon="-0.01048">
        <ele>94</ele>
        <time>2013-06-19T14:29:04Z</time>
      </trkpt>
      <trkpt lat="49.31857" lon="-0.01027">
        <ele>90</ele>
        <time>2013-06-19T14:29:22Z</time>
      </trkpt>
      <trkpt lat="49.31862" lon="-0.01019">
        <ele>91</ele>
        <time>2013-06-19T14:29:30Z</time>
      </trkpt>
      <trkpt lat="49.31872" lon="-0.0101">
        <ele>94</ele>
        <time>2013-06-19T14:29:44Z</time>
      </trkpt>
      <trkpt lat="49.31874" lon="-0.01007">
        <ele>94</ele>
        <time>2013-06-19T14:29:47Z</time>
      </trkpt>
      <trkpt lat="49.31883" lon="-0.00989">
        <ele>92</ele>
        <time>2013-06-19T14:30:01Z</time>
      </trkpt>
      <trkpt lat="49.31902" lon="-0.00958">
        <ele>80</ele>
        <time>2013-06-19T14:30:19Z</time>
      </trkpt>
      <trkpt lat="49.31924" lon="-0.00957">
        <ele>64</ele>
        <time>2013-06-19T14:30:37Z</time>
      </trkpt>
      <trkpt lat="49.31927" lon="-0.00956">
        <ele>64</ele>
        <time>2013-06-19T14:30:41Z</time>
      </trkpt>
      <trkpt lat="49.3193" lon="-0.00953">
        <ele>63</ele>
        <time>2013-06-19T14:30:45Z</time>
      </trkpt>
      <trkpt lat="49.31935" lon="-0.00945">
        <ele>62</ele>
        <time>2013-06-19T14:30:51Z</time>
      </trkpt>
      <trkpt lat="49.31949" lon="-0.00925">
        <ele>59</ele>
        <time>2013-06-19T14:31:06Z</time>
      </trkpt>
      <trkpt lat="49.3195" lon="-0.00924">
        <ele>59</ele>
        <time>2013-06-19T14:31:07Z</time>
      </trkpt>
      <trkpt lat="49.31953" lon="-0.0092">
        <ele>59</ele>
        <time>2013-06-19T14:31:10Z</time>
      </trkpt>
      <trkpt lat="49.31958" lon="-0.00916">
        <ele>58</ele>
        <time>2013-06-19T14:31:16Z</time>
      </trkpt>
      <trkpt lat="49.31961" lon="-0.00913">
        <ele>59</ele>
        <time>2013-06-19T14:31:19Z</time>
      </trkpt>
      <trkpt lat="49.31966" lon="-0.00909">
        <ele>61</ele>
        <time>2013-06-19T14:31:24Z</time>
      </trkpt>
      <trkpt lat="49.31971" lon="-0.00909">
        <ele>59</ele>
        <time>2013-06-19T14:31:28Z</time>
      </trkpt>
      <trkpt lat="49.31974" lon="-0.00905">
        <ele>58</ele>
        <time>2013-06-19T14:31:31Z</time>
      </trkpt>
      <trkpt lat="49.31981" lon="-0.00899">
        <ele>55</ele>
        <time>2013-06-19T14:31:37Z</time>
      </trkpt>
      <trkpt lat="49.31984" lon="-0.00891">
        <ele>54</ele>
        <time>2013-06-19T14:31:41Z</time>
      </trkpt>
      <trkpt lat="49.31988" lon="-0.00885">
        <ele>51</ele>
        <time>2013-06-19T14:31:56Z</time>
      </trkpt>
      <trkpt lat="49.3199" lon="-0.00882">
        <ele>46</ele>
        <time>2013-06-19T14:32:16Z</time>
      </trkpt>
      <trkpt lat="49.31996" lon="-0.00874">
        <ele>43</ele>
        <time>2013-06-19T14:32:29Z</time>
      </trkpt>
      <trkpt lat="49.31996" lon="-0.00873">
        <ele>43</ele>
        <time>2013-06-19T14:32:30Z</time>
      </trkpt>
      <trkpt lat="49.31998" lon="-0.00858">
        <ele>45</ele>
        <time>2013-06-19T14:32:43Z</time>
      </trkpt>
      <trkpt lat="49.31997" lon="-0.00844">
        <ele>45</ele>
        <time>2013-06-19T14:32:50Z</time>
      </trkpt>
      <trkpt lat="49.32002" lon="-0.0084">
        <ele>45</ele>
        <time>2013-06-19T14:32:55Z</time>
      </trkpt>
      <trkpt lat="49.32006" lon="-0.00836">
        <ele>45</ele>
        <time>2013-06-19T14:33:02Z</time>
      </trkpt>
      <trkpt lat="49.32007" lon="-0.00822">
        <ele>47</ele>
        <time>2013-06-19T14:33:10Z</time>
      </trkpt>
      <trkpt lat="49.32011" lon="-0.00792">
        <ele>48</ele>
        <time>2013-06-19T14:33:28Z</time>
      </trkpt>
      <trkpt lat="49.32016" lon="-0.00756">
        <ele>45</ele>
        <time>2013-06-19T14:33:47Z</time>
      </trkpt>
      <trkpt lat="49.32031" lon="-0.00728">
        <ele>42</ele>
        <time>2013-06-19T14:34:05Z</time>
      </trkpt>
      <trkpt lat="49.32036" lon="-0.00702">
        <ele>40</ele>
        <time>2013-06-19T14:34:19Z</time>
      </trkpt>
      <trkpt lat="49.32037" lon="-0.00698">
        <ele>39</ele>
        <time>2013-06-19T14:34:22Z</time>
      </trkpt>
      <trkpt lat="49.32037" lon="-0.00692">
        <ele>39</ele>
        <time>2013-06-19T14:34:25Z</time>
      </trkpt>
      <trkpt lat="49.32042" lon="-0.00681">
        <ele>34</ele>
        <time>2013-06-19T14:34:33Z</time>
      </trkpt>
      <trkpt lat="49.32051" lon="-0.00674">
        <ele>26</ele>
        <time>2013-06-19T14:34:49Z</time>
      </trkpt>
      <trkpt lat="49.32064" lon="-0.0067">
        <ele>23</ele>
        <time>2013-06-19T14:35:12Z</time>
      </trkpt>
      <trkpt lat="49.32081" lon="-0.00674">
        <ele>23</ele>
        <time>2013-06-19T14:35:26Z</time>
      </trkpt>
      <trkpt lat="49.32083" lon="-0.00679">
        <ele>20</ele>
        <time>2013-06-19T14:35:44Z</time>
      </trkpt>
      <trkpt lat="49.32078" lon="-0.00683">
        <ele>19</ele>
        <time>2013-06-19T14:36:12Z</time>
      </trkpt>
      <trkpt lat="49.32069" lon="-0.0069">
        <ele>20</ele>
        <time>2013-06-19T14:36:29Z</time>
      </trkpt>
      <trkpt lat="49.32069" lon="-0.00689">
        <ele>20</ele>
        <time>2013-06-19T14:38:12Z</time>
      </trkpt>
      <trkpt lat="49.32083" lon="-0.00682">
        <ele>19</ele>
        <time>2013-06-19T14:38:31Z</time>
      </trkpt>
      <trkpt lat="49.32093" lon="-0.00696">
        <ele>17</ele>
        <time>2013-06-19T14:38:45Z</time>
      </trkpt>
      <trkpt lat="49.32094" lon="-0.00698">
        <ele>17</ele>
        <time>2013-06-19T14:38:47Z</time>
      </trkpt>
      <trkpt lat="49.32093" lon="-0.00703">
        <ele>18</ele>
        <time>2013-06-19T14:38:51Z</time>
      </trkpt>
      <trkpt lat="49.32096" lon="-0.00709">
        <ele>18</ele>
        <time>2013-06-19T14:38:55Z</time>
      </trkpt>
      <trkpt lat="49.32104" lon="-0.00722">
        <ele>20</ele>
        <time>2013-06-19T14:39:03Z</time>
      </trkpt>
      <trkpt lat="49.32118" lon="-0.0074">
        <ele>23</ele>
        <time>2013-06-19T14:39:16Z</time>
      </trkpt>
      <trkpt lat="49.32119" lon="-0.00741">
        <ele>23</ele>
        <time>2013-06-19T14:39:17Z</time>
      </trkpt>
      <trkpt lat="49.32119" lon="-0.00761">
        <ele>26</ele>
        <time>2013-06-19T14:39:28Z</time>
      </trkpt>
      <trkpt lat="49.32123" lon="-0.00781">
        <ele>28</ele>
        <time>2013-06-19T14:39:39Z</time>
      </trkpt>
      <trkpt lat="49.32131" lon="-0.0081">
        <ele>36</ele>
        <time>2013-06-19T14:39:53Z</time>
      </trkpt>
      <trkpt lat="49.32132" lon="-0.00811">
        <ele>37</ele>
        <time>2013-06-19T14:39:56Z</time>
      </trkpt>
      <trkpt lat="49.32137" lon="-0.00837">
        <ele>44</ele>
        <time>2013-06-19T14:40:10Z</time>
      </trkpt>
      <trkpt lat="49.32154" lon="-0.00863">
        <ele>43</ele>
        <time>2013-06-19T14:40:26Z</time>
      </trkpt>
      <trkpt lat="49.32169" lon="-0.00884">
        <ele>37</ele>
        <time>2013-06-19T14:40:39Z</time>
      </trkpt>
      <trkpt lat="49.32173" lon="-0.00895">
        <ele>36</ele>
        <time>2013-06-19T14:40:45Z</time>
      </trkpt>
      <trkpt lat="49.32181" lon="-0.00927">
        <ele>32</ele>
        <time>2013-06-19T14:41:03Z</time>
      </trkpt>
      <trkpt lat="49.3219" lon="-0.00949">
        <ele>29</ele>
        <time>2013-06-19T14:41:13Z</time>
      </trkpt>
      <trkpt lat="49.32205" lon="-0.00952">
        <ele>28</ele>
        <time>2013-06-19T14:41:30Z</time>
      </trkpt>
      <trkpt lat="49.3222" lon="-0.00949">
        <ele>19</ele>
        <time>2013-06-19T14:41:51Z</time>
      </trkpt>
      <trkpt lat="49.32229" lon="-0.00941">
        <ele>17</ele>
        <time>2013-06-19T14:42:09Z</time>
      </trkpt>
      <trkpt lat="49.32234" lon="-0.00939">
        <ele>16</ele>
        <time>2013-06-19T14:42:17Z</time>
      </trkpt>
      <trkpt lat="49.32238" lon="-0.00934">
        <ele>16</ele>
        <time>2013-06-19T14:42:24Z</time>
      </trkpt>
      <trkpt lat="49.32253" lon="-0.00925">
        <ele>10</ele>
        <time>2013-06-19T14:42:44Z</time>
      </trkpt>
      <trkpt lat="49.32264" lon="-0.00918">
        <ele>5</ele>
        <time>2013-06-19T14:42:59Z</time>
      </trkpt>
      <trkpt lat="49.32274" lon="-0.00889">
        <ele>2</ele>
        <time>2013-06-19T14:43:20Z</time>
      </trkpt>
      <trkpt lat="49.32283" lon="-0.00861">
        <ele>2</ele>
        <time>2013-06-19T14:43:39Z</time>
      </trkpt>
      <trkpt lat="49.32286" lon="-0.00849">
        <ele>2</ele>
        <time>2013-06-19T14:43:48Z</time>
      </trkpt>
      <trkpt lat="49.3229" lon="-0.0083">
        <ele>6</ele>
        <time>2013-06-19T14:44:07Z</time>
      </trkpt>
      <trkpt lat="49.32291" lon="-0.00829">
        <ele>7</ele>
        <time>2013-06-19T14:44:33Z</time>
      </trkpt>
      <trkpt lat="49.32295" lon="-0.00821">
        <ele>9</ele>
        <time>2013-06-19T14:44:39Z</time>
      </trkpt>
      <trkpt lat="49.32307" lon="-0.00792">
        <ele>14</ele>
        <time>2013-06-19T14:44:59Z</time>
      </trkpt>
      <trkpt lat="49.32317" lon="-0.00757">
        <ele>9</ele>
        <time>2013-06-19T14:45:17Z</time>
      </trkpt>
      <trkpt lat="49.32328" lon="-0.00721">
        <ele>16</ele>
        <time>2013-06-19T14:45:39Z</time>
      </trkpt>
      <trkpt lat="49.32347" lon="-0.00676">
        <ele>12</ele>
        <time>2013-06-19T14:46:06Z</time>
      </trkpt>
      <trkpt lat="49.32356" lon="-0.00656">
        <ele>7</ele>
        <time>2013-06-19T14:46:26Z</time>
      </trkpt>
      <trkpt lat="49.3236" lon="-0.00639">
        <ele>7</ele>
        <time>2013-06-19T14:46:36Z</time>
      </trkpt>
      <trkpt lat="49.32366" lon="-0.00617">
        <ele>8</ele>
        <time>2013-06-19T14:46:49Z</time>
      </trkpt>
      <trkpt lat="49.32379" lon="-0.00575">
        <ele>10</ele>
        <time>2013-06-19T14:47:15Z</time>
      </trkpt>
      <trkpt lat="49.32382" lon="-0.00564">
        <ele>8</ele>
        <time>2013-06-19T14:47:26Z</time>
      </trkpt>
      <trkpt lat="49.32392" lon="-0.00535">
        <ele>8</ele>
        <time>2013-06-19T14:47:48Z</time>
      </trkpt>
      <trkpt lat="49.32397" lon="-0.0052">
        <ele>10</ele>
        <time>2013-06-19T14:48:00Z</time>
      </trkpt>
      <trkpt lat="49.32401" lon="-0.00503">
        <ele>9</ele>
        <time>2013-06-19T14:48:14Z</time>
      </trkpt>
      <trkpt lat="49.32403" lon="-0.005">
        <ele>8</ele>
        <time>2013-06-19T14:48:17Z</time>
      </trkpt>
      <trkpt lat="49.32415" lon="-0.00465">
        <ele>9</ele>
        <time>2013-06-19T14:48:40Z</time>
      </trkpt>
      <trkpt lat="49.32421" lon="-0.0045">
        <ele>8</ele>
        <time>2013-06-19T14:48:52Z</time>
      </trkpt>
      <trkpt lat="49.32431" lon="-0.00422">
        <ele>8</ele>
        <time>2013-06-19T14:49:09Z</time>
      </trkpt>
      <trkpt lat="49.32432" lon="-0.00416">
        <ele>8</ele>
        <time>2013-06-19T14:49:13Z</time>
      </trkpt>
      <trkpt lat="49.32439" lon="-0.00397">
        <ele>7</ele>
        <time>2013-06-19T14:49:25Z</time>
      </trkpt>
      <trkpt lat="49.32446" lon="-0.00374">
        <ele>5</ele>
        <time>2013-06-19T14:49:40Z</time>
      </trkpt>
      <trkpt lat="49.3246" lon="-0.00335">
        <ele>6</ele>
        <time>2013-06-19T14:50:05Z</time>
      </trkpt>
      <trkpt lat="49.32474" lon="-0.00299">
        <ele>7</ele>
        <time>2013-06-19T14:50:29Z</time>
      </trkpt>
      <trkpt lat="49.32481" lon="-0.00274">
        <ele>6</ele>
        <time>2013-06-19T14:50:45Z</time>
      </trkpt>
      <trkpt lat="49.32494" lon="-0.00239">
        <ele>6</ele>
        <time>2013-06-19T14:51:08Z</time>
      </trkpt>
      <trkpt lat="49.32508" lon="-0.00199">
        <ele>5</ele>
        <time>2013-06-19T14:51:34Z</time>
      </trkpt>
      <trkpt lat="49.32509" lon="-0.00194">
        <ele>4</ele>
        <time>2013-06-19T14:51:37Z</time>
      </trkpt>
      <trkpt lat="49.3251" lon="-0.00181">
        <ele>4</ele>
        <time>2013-06-19T14:51:47Z</time>
      </trkpt>
      <trkpt lat="49.32505" lon="-0.0017">
        <ele>3</ele>
        <time>2013-06-19T14:51:55Z</time>
      </trkpt>
      <trkpt lat="49.32507" lon="-0.00164">
        <ele>4</ele>
        <time>2013-06-19T14:51:59Z</time>
      </trkpt>
      <trkpt lat="49.32509" lon="-0.00159">
        <ele>4</ele>
        <time>2013-06-19T14:52:03Z</time>
      </trkpt>
      <trkpt lat="49.32507" lon="-0.00148">
        <ele>5</ele>
        <time>2013-06-19T14:52:21Z</time>
      </trkpt>
      <trkpt lat="49.32508" lon="-0.00142">
        <ele>4</ele>
        <time>2013-06-19T14:52:32Z</time>
      </trkpt>
      <trkpt lat="49.32504" lon="-0.00138">
        <ele>3</ele>
        <time>2013-06-19T14:52:46Z</time>
      </trkpt>
      <trkpt lat="49.32499" lon="-0.00136">
        <ele>4</ele>
        <time>2013-06-19T14:52:59Z</time>
      </trkpt>
      <trkpt lat="49.32496" lon="-0.00135">
        <ele>5</ele>
        <time>2013-06-19T14:53:22Z</time>
      </trkpt>
      <trkpt lat="49.32489" lon="-0.00132">
        <ele>6</ele>
        <time>2013-06-19T14:53:32Z</time>
      </trkpt>
      <trkpt lat="49.32476" lon="-0.00128">
        <ele>10</ele>
        <time>2013-06-19T14:53:47Z</time>
      </trkpt>
      <trkpt lat="49.32465" lon="-0.00122">
        <ele>13</ele>
        <time>2013-06-19T14:54:04Z</time>
      </trkpt>
      <trkpt lat="49.32453" lon="-0.0012">
        <ele>14</ele>
        <time>2013-06-19T14:54:16Z</time>
      </trkpt>
      <trkpt lat="49.32441" lon="-0.00121">
        <ele>12</ele>
        <time>2013-06-19T14:54:26Z</time>
      </trkpt>
      <trkpt lat="49.32424" lon="-0.00133">
        <ele>8</ele>
        <time>2013-06-19T14:54:45Z</time>
      </trkpt>
      <trkpt lat="49.32421" lon="-0.00135">
        <ele>7</ele>
        <time>2013-06-19T14:54:58Z</time>
      </trkpt>
      <trkpt lat="49.32422" lon="-0.00135">
        <ele>7</ele>
        <time>2013-06-19T14:54:59Z</time>
      </trkpt>
    </trkseg>
  </trk>
</gpx>